Back to Top

Language: 

My Weather Underground Personal Weather Station Historical Data with Graphs...

Delerius Weather Station Historical Data
Daily Summary for January 9, 2018 Units:  English    Metric   Both
« Previous Day
Next Day »
Daily Weekly Monthly Yearly Custom
  High: Low: Average:
Temperature: 39.0 °F 34.9 °F 36.2 °F
Dew Point: 38.2 °F 33.9 °F 35.2 °F
Humidity: 97 % 96 % 96 %
Wind Speed: 10.0 mph 0.0 mph 5 mph
Wind Gust: 15.0 mph - -
Wind:- - SE
Pressure: 30.01 in 29.58 in -
Precipitation: 0.01 in    
Historical Graphs
 
 
Tabular Data for January 9, 2018
Time Temperature Dew Point Pressure Wind Wind Speed Wind Gust Humidity Rainfall Rate (Hourly) solar Conditions
00:00 36.0 °F 35.2 °F 30.01 in ESE 6.0 mph 10.0 mph 97 % 0.00 in 0 W/m2
00:02 36.0 °F 35.2 °F 30.01 in SE 2.0 mph 6.0 mph 97 % 0.00 in 0 W/m2
00:03 36.0 °F 35.2 °F 30.01 in SE 2.0 mph 4.0 mph 97 % 0.00 in 0 W/m2
00:04 36.0 °F 35.2 °F 30.01 in SE 3.0 mph 5.0 mph 97 % 0.00 in 0 W/m2
00:05 36.0 °F 35.2 °F 30.01 in ESE 4.0 mph 7.0 mph 97 % 0.00 in 0 W/m2
00:08 36.0 °F 35.2 °F 30.01 in ESE 5.0 mph 7.0 mph 97 % 0.00 in 0 W/m2
00:12 36.0 °F 35.2 °F 30.00 in ESE 6.0 mph 11.0 mph 97 % 0.00 in 0 W/m2
00:13 36.0 °F 35.2 °F 30.00 in ESE 5.0 mph 11.0 mph 97 % 0.00 in 0 W/m2
00:16 36.0 °F 35.2 °F 30.00 in ESE 6.0 mph 9.0 mph 97 % 0.00 in 0 W/m2
00:17 36.0 °F 35.2 °F 30.00 in ESE 6.0 mph 9.0 mph 97 % 0.00 in 0 W/m2
00:18 36.0 °F 35.2 °F 30.00 in ESE 6.0 mph 9.0 mph 97 % 0.00 in 0 W/m2
00:19 36.0 °F 34.9 °F 30.00 in East 6.0 mph 9.0 mph 96 % 0.00 in 0 W/m2
00:21 36.0 °F 34.9 °F 30.00 in ESE 7.0 mph 10.0 mph 96 % 0.00 in 0 W/m2
00:23 36.0 °F 34.9 °F 30.00 in ESE 6.0 mph 8.0 mph 96 % 0.00 in 0 W/m2
00:26 36.0 °F 34.9 °F 30.00 in SE 4.0 mph 7.0 mph 96 % 0.00 in 0 W/m2
00:27 36.0 °F 34.9 °F 30.00 in ESE 5.0 mph 9.0 mph 96 % 0.00 in 0 W/m2
00:28 36.0 °F 34.9 °F 30.00 in ESE 6.0 mph 9.0 mph 96 % 0.00 in 0 W/m2
00:29 36.0 °F 34.9 °F 30.00 in ESE 5.0 mph 9.0 mph 96 % 0.00 in 0 W/m2
00:33 36.0 °F 34.9 °F 30.00 in ESE 5.0 mph 8.0 mph 96 % 0.00 in 0 W/m2
00:34 36.0 °F 34.9 °F 30.00 in ESE 5.0 mph 7.0 mph 96 % 0.00 in 0 W/m2
00:36 36.0 °F 34.9 °F 29.99 in ESE 5.0 mph 8.0 mph 96 % 0.00 in 0 W/m2
00:37 36.0 °F 34.9 °F 29.99 in ESE 6.0 mph 8.0 mph 96 % 0.00 in 0 W/m2
00:41 36.0 °F 34.9 °F 29.99 in ESE 5.0 mph 9.0 mph 96 % 0.00 in 0 W/m2
00:42 36.0 °F 34.9 °F 29.99 in ESE 5.0 mph 9.0 mph 96 % 0.00 in 0 W/m2
00:46 35.8 °F 34.8 °F 29.99 in ESE 8.0 mph 11.0 mph 96 % 0.00 in 0 W/m2
00:49 35.8 °F 34.8 °F 29.99 in SE 4.0 mph 8.0 mph 96 % 0.00 in 0 W/m2
00:54 35.8 °F 34.8 °F 29.99 in SE 3.0 mph 6.0 mph 96 % 0.00 in 0 W/m2
00:55 35.8 °F 34.8 °F 29.99 in SE 3.0 mph 6.0 mph 96 % 0.00 in 0 W/m2
00:56 35.8 °F 34.8 °F 29.99 in SE 5.0 mph 7.0 mph 96 % 0.00 in 0 W/m2
00:58 35.8 °F 34.8 °F 29.99 in ESE 7.0 mph 12.0 mph 96 % 0.00 in 0 W/m2
00:59 35.8 °F 34.8 °F 29.98 in ESE 7.0 mph 12.0 mph 96 % 0.00 in 0 W/m2
01:00 35.8 °F 34.8 °F 29.98 in SE 8.0 mph 12.0 mph 96 % 0.00 in 0 W/m2
01:01 35.8 °F 34.8 °F 29.98 in SE 7.0 mph 11.0 mph 96 % 0.00 in 0 W/m2
01:02 35.8 °F 34.8 °F 29.98 in SE 6.0 mph 9.0 mph 96 % 0.00 in 0 W/m2
01:03 35.8 °F 34.8 °F 29.99 in SE 6.0 mph 9.0 mph 96 % 0.00 in 0 W/m2
01:04 35.8 °F 34.8 °F 29.98 in SE 6.0 mph 9.0 mph 96 % 0.00 in 0 W/m2
01:05 35.8 °F 34.8 °F 29.98 in SE 6.0 mph 9.0 mph 96 % 0.00 in 0 W/m2
01:07 35.8 °F 34.8 °F 29.98 in SE 7.0 mph 10.0 mph 96 % 0.00 in 0 W/m2
01:08 35.8 °F 34.8 °F 29.98 in SE 6.0 mph 9.0 mph 96 % 0.00 in 0 W/m2
01:09 35.8 °F 34.8 °F 29.98 in SE 5.0 mph 8.0 mph 96 % 0.00 in 0 W/m2
01:10 35.8 °F 34.8 °F 29.98 in SE 4.0 mph 8.0 mph 96 % 0.00 in 0 W/m2
01:11 35.8 °F 34.8 °F 29.98 in ESE 4.0 mph 6.0 mph 96 % 0.00 in 0 W/m2
01:13 35.8 °F 34.8 °F 29.98 in ESE 6.0 mph 8.0 mph 96 % 0.00 in 0 W/m2
01:16 35.8 °F 34.8 °F 29.98 in ESE 6.0 mph 8.0 mph 96 % 0.00 in 0 W/m2
01:17 35.8 °F 34.8 °F 29.98 in ESE 5.0 mph 8.0 mph 96 % 0.00 in 0 W/m2
01:19 35.8 °F 34.8 °F 29.98 in SE 4.0 mph 6.0 mph 96 % 0.00 in 0 W/m2
01:20 35.8 °F 34.8 °F 29.98 in SE 3.0 mph 8.0 mph 96 % 0.00 in 0 W/m2
01:21 35.8 °F 34.8 °F 29.98 in ESE 4.0 mph 9.0 mph 96 % 0.00 in 0 W/m2
01:22 35.8 °F 34.8 °F 29.98 in SE 6.0 mph 12.0 mph 96 % 0.00 in 0 W/m2
01:27 35.6 °F 34.8 °F 29.98 in SE 6.0 mph 9.0 mph 97 % 0.00 in 0 W/m2
01:29 35.6 °F 34.8 °F 29.97 in SE 5.0 mph 9.0 mph 97 % 0.00 in 0 W/m2
01:33 35.6 °F 34.8 °F 29.97 in ESE 6.0 mph 10.0 mph 97 % 0.00 in 0 W/m2
01:35 35.6 °F 34.8 °F 29.97 in ESE 4.0 mph 7.0 mph 97 % 0.00 in 0 W/m2
01:37 35.6 °F 34.8 °F 29.97 in SE 5.0 mph 9.0 mph 97 % 0.00 in 0 W/m2
01:42 35.6 °F 34.8 °F 29.97 in ESE 6.0 mph 9.0 mph 97 % 0.00 in 0 W/m2
01:43 35.6 °F 34.8 °F 29.97 in ESE 5.0 mph 8.0 mph 97 % 0.00 in 0 W/m2
01:44 35.6 °F 34.8 °F 29.97 in SE 7.0 mph 13.0 mph 97 % 0.00 in 0 W/m2
01:45 35.6 °F 34.8 °F 29.97 in ESE 7.0 mph 13.0 mph 97 % 0.00 in 0 W/m2
01:46 35.4 °F 34.7 °F 29.97 in ESE 7.0 mph 13.0 mph 97 % 0.00 in 0 W/m2
01:47 35.4 °F 34.7 °F 29.97 in ESE 5.0 mph 9.0 mph 97 % 0.00 in 0 W/m2
01:49 35.4 °F 34.7 °F 29.97 in SE 7.0 mph 9.0 mph 97 % 0.00 in 0 W/m2
01:51 35.4 °F 34.7 °F 29.96 in SE 7.0 mph 10.0 mph 97 % 0.00 in 0 W/m2
01:52 35.4 °F 34.7 °F 29.96 in SE 7.0 mph 11.0 mph 97 % 0.00 in 0 W/m2
01:55 35.4 °F 34.7 °F 29.96 in SE 8.0 mph 13.0 mph 97 % 0.01 in 0 W/m2
02:07 35.2 °F 34.2 °F 29.95 in ESE 7.0 mph 9.0 mph 96 % 0.01 in 0 W/m2
02:08 35.2 °F 34.2 °F 29.95 in SE 7.0 mph 10.0 mph 96 % 0.01 in 0 W/m2
02:10 35.2 °F 34.2 °F 29.95 in ESE 7.0 mph 11.0 mph 96 % 0.01 in 0 W/m2
02:11 35.1 °F 34.0 °F 29.95 in ESE 8.0 mph 12.0 mph 96 % 0.01 in 0 W/m2
02:16 35.1 °F 34.0 °F 29.95 in SE 9.0 mph 13.0 mph 96 % 0.01 in 0 W/m2
02:21 35.1 °F 34.3 °F 29.95 in SE 7.0 mph 10.0 mph 97 % 0.01 in 0 W/m2
02:22 35.1 °F 34.3 °F 29.95 in SE 7.0 mph 9.0 mph 97 % 0.01 in 0 W/m2
02:24 35.1 °F 34.3 °F 29.95 in SE 7.0 mph 10.0 mph 97 % 0.01 in 0 W/m2
02:26 35.1 °F 34.3 °F 29.95 in SE 7.0 mph 10.0 mph 97 % 0.01 in 0 W/m2
02:27 35.1 °F 34.3 °F 29.94 in SE 7.0 mph 10.0 mph 97 % 0.01 in 0 W/m2
02:28 35.1 °F 34.3 °F 29.94 in SE 6.0 mph 10.0 mph 97 % 0.01 in 0 W/m2
02:29 35.1 °F 34.3 °F 29.94 in SE 6.0 mph 9.0 mph 97 % 0.01 in 0 W/m2
02:30 34.9 °F 34.1 °F 29.94 in SE 6.0 mph 9.0 mph 97 % 0.01 in 0 W/m2
02:31 34.9 °F 34.1 °F 29.94 in SE 6.0 mph 9.0 mph 97 % 0.01 in 0 W/m2
02:32 35.1 °F 34.3 °F 29.94 in SSE 4.0 mph 9.0 mph 97 % 0.01 in 0 W/m2
02:33 34.9 °F 34.1 °F 29.94 in SSE 4.0 mph 9.0 mph 97 % 0.01 in 0 W/m2
02:34 34.9 °F 34.1 °F 29.94 in SSE 4.0 mph 10.0 mph 97 % 0.01 in 0 W/m2
02:35 34.9 °F 34.1 °F 29.94 in SSE 5.0 mph 10.0 mph 97 % 0.01 in 0 W/m2
02:36 35.1 °F 34.3 °F 29.94 in SE 6.0 mph 10.0 mph 97 % 0.01 in 0 W/m2
02:37 34.9 °F 34.1 °F 29.94 in SE 7.0 mph 10.0 mph 97 % 0.01 in 0 W/m2
02:38 34.9 °F 34.1 °F 29.94 in SE 8.0 mph 10.0 mph 97 % 0.01 in 0 W/m2
02:40 34.9 °F 34.1 °F 29.94 in SE 8.0 mph 11.0 mph 97 % 0.01 in 0 W/m2
02:41 34.9 °F 34.1 °F 29.94 in SE 8.0 mph 11.0 mph 97 % 0.01 in 0 W/m2
02:42 34.9 °F 34.1 °F 29.94 in SE 7.0 mph 12.0 mph 97 % 0.01 in 0 W/m2
02:43 34.9 °F 34.1 °F 29.94 in SE 8.0 mph 15.0 mph 97 % 0.01 in 0 W/m2
02:44 34.9 °F 34.1 °F 29.94 in SE 9.0 mph 15.0 mph 97 % 0.01 in 0 W/m2
02:45 34.9 °F 34.1 °F 29.94 in SSE 8.0 mph 13.0 mph 97 % 0.01 in 0 W/m2
02:48 34.9 °F 34.1 °F 29.93 in ESE 6.0 mph 10.0 mph 97 % 0.01 in 0 W/m2
02:49 34.9 °F 34.1 °F 29.93 in ESE 7.0 mph 10.0 mph 97 % 0.01 in 0 W/m2
02:53 34.9 °F 34.1 °F 29.93 in ESE 6.0 mph 10.0 mph 97 % 0.00 in 0 W/m2
02:56 34.9 °F 34.1 °F 29.93 in ESE 6.0 mph 10.0 mph 97 % 0.00 in 0 W/m2
02:57 34.9 °F 34.1 °F 29.93 in ESE 6.0 mph 9.0 mph 97 % 0.00 in 0 W/m2
02:58 34.9 °F 34.1 °F 29.93 in ESE 7.0 mph 11.0 mph 97 % 0.00 in 0 W/m2
02:59 34.9 °F 34.1 °F 29.93 in ESE 8.0 mph 11.0 mph 97 % 0.00 in 0 W/m2
03:00 34.9 °F 34.1 °F 29.93 in ESE 7.0 mph 11.0 mph 97 % 0.00 in 0 W/m2
03:01 34.9 °F 34.1 °F 29.93 in ESE 7.0 mph 11.0 mph 97 % 0.00 in 0 W/m2
03:03 34.9 °F 34.1 °F 29.92 in SE 7.0 mph 9.0 mph 97 % 0.00 in 0 W/m2
03:04 34.9 °F 34.1 °F 29.93 in SE 7.0 mph 10.0 mph 97 % 0.00 in 0 W/m2
03:05 34.9 °F 34.1 °F 29.93 in SE 6.0 mph 10.0 mph 97 % 0.00 in 0 W/m2
03:06 34.9 °F 34.1 °F 29.93 in SE 4.0 mph 8.0 mph 97 % 0.00 in 0 W/m2
03:08 34.9 °F 34.1 °F 29.93 in ESE 4.0 mph 7.0 mph 97 % 0.00 in 0 W/m2
03:09 34.9 °F 34.1 °F 29.93 in ESE 4.0 mph 7.0 mph 97 % 0.00 in 0 W/m2
03:11 34.9 °F 34.1 °F 29.92 in SE 2.0 mph 7.0 mph 97 % 0.00 in 0 W/m2
03:12 34.9 °F 34.1 °F 29.92 in SE 2.0 mph 6.0 mph 97 % 0.00 in 0 W/m2
03:13 34.9 °F 34.1 °F 29.92 in SE 2.0 mph 6.0 mph 97 % 0.00 in 0 W/m2
03:14 34.9 °F 34.1 °F 29.92 in SE 2.0 mph 6.0 mph 97 % 0.00 in 0 W/m2
03:15 34.9 °F 34.1 °F 29.92 in SE 2.0 mph 6.0 mph 97 % 0.00 in 0 W/m2
03:16 34.9 °F 34.1 °F 29.92 in SE 4.0 mph 7.0 mph 97 % 0.00 in 0 W/m2
03:18 34.9 °F 33.9 °F 29.92 in ESE 4.0 mph 7.0 mph 96 % 0.00 in 0 W/m2
03:19 34.9 °F 34.1 °F 29.92 in SE 4.0 mph 8.0 mph 97 % 0.00 in 0 W/m2
03:20 34.9 °F 34.1 °F 29.92 in SE 5.0 mph 8.0 mph 97 % 0.00 in 0 W/m2
03:21 34.9 °F 33.9 °F 29.92 in SE 6.0 mph 8.0 mph 96 % 0.00 in 0 W/m2
03:23 34.9 °F 33.9 °F 29.92 in SE 5.0 mph 8.0 mph 96 % 0.00 in 0 W/m2
03:24 34.9 °F 33.9 °F 29.92 in SE 5.0 mph 8.0 mph 96 % 0.00 in 0 W/m2
03:25 34.9 °F 34.1 °F 29.92 in SE 4.0 mph 6.0 mph 97 % 0.00 in 0 W/m2
03:26 34.9 °F 34.1 °F 29.92 in ESE 5.0 mph 9.0 mph 97 % 0.00 in 0 W/m2
03:29 34.9 °F 34.1 °F 29.92 in ESE 5.0 mph 9.0 mph 97 % 0.00 in 0 W/m2
03:30 34.9 °F 34.1 °F 29.92 in ESE 5.0 mph 7.0 mph 97 % 0.00 in 0 W/m2
03:33 34.9 °F 34.1 °F 29.92 in SE 5.0 mph 7.0 mph 97 % 0.00 in 0 W/m2
03:35 34.9 °F 34.1 °F 29.92 in SE 4.0 mph 7.0 mph 97 % 0.00 in 0 W/m2
03:38 34.9 °F 34.1 °F 29.92 in ESE 3.0 mph 8.0 mph 97 % 0.00 in 0 W/m2
03:39 34.9 °F 34.1 °F 29.92 in ESE 4.0 mph 7.0 mph 97 % 0.00 in 0 W/m2
03:40 34.9 °F 34.1 °F 29.92 in ESE 4.0 mph 7.0 mph 97 % 0.00 in 0 W/m2
03:41 34.9 °F 34.1 °F 29.92 in ESE 5.0 mph 7.0 mph 97 % 0.00 in 0 W/m2
03:47 34.9 °F 33.9 °F 29.91 in SE 5.0 mph 9.0 mph 96 % 0.00 in 0 W/m2
03:50 34.9 °F 33.9 °F 29.91 in SE 8.0 mph 11.0 mph 96 % 0.00 in 0 W/m2
03:51 34.9 °F 33.9 °F 29.91 in SE 8.0 mph 11.0 mph 96 % 0.00 in 0 W/m2
03:52 34.9 °F 33.9 °F 29.91 in SE 7.0 mph 10.0 mph 96 % 0.00 in 0 W/m2
03:55 34.9 °F 34.1 °F 29.90 in SE 5.0 mph 10.0 mph 97 % 0.00 in 0 W/m2
03:56 34.9 °F 33.9 °F 29.90 in ESE 6.0 mph 10.0 mph 96 % 0.00 in 0 W/m2
04:00 34.9 °F 34.1 °F 29.90 in ESE 3.0 mph 7.0 mph 97 % 0.00 in 0 W/m2
04:01 34.9 °F 34.1 °F 29.90 in ESE 3.0 mph 7.0 mph 97 % 0.00 in 0 W/m2
04:03 34.9 °F 34.1 °F 29.90 in SE 3.0 mph 6.0 mph 97 % 0.00 in 0 W/m2
04:06 34.9 °F 33.9 °F 29.90 in SE 2.0 mph 5.0 mph 96 % 0.00 in 0 W/m2
04:07 34.9 °F 34.1 °F 29.90 in SE 2.0 mph 5.0 mph 97 % 0.00 in 0 W/m2
04:09 34.9 °F 34.1 °F 29.90 in SE 3.0 mph 5.0 mph 97 % 0.00 in 0 W/m2
04:10 34.9 °F 34.1 °F 29.90 in ESE 2.0 mph 6.0 mph 97 % 0.00 in 0 W/m2
04:11 34.9 °F 34.1 °F 29.90 in ESE 2.0 mph 6.0 mph 97 % 0.00 in 0 W/m2
04:12 34.9 °F 34.1 °F 29.90 in SE 2.0 mph 4.0 mph 97 % 0.00 in 0 W/m2
04:13 34.9 °F 34.1 °F 29.90 in SE 4.0 mph 6.0 mph 97 % 0.00 in 0 W/m2
04:14 34.9 °F 34.1 °F 29.90 in SE 4.0 mph 6.0 mph 97 % 0.00 in 0 W/m2
04:16 34.9 °F 33.9 °F 29.90 in ESE 4.0 mph 7.0 mph 96 % 0.00 in 0 W/m2
04:17 34.9 °F 33.9 °F 29.90 in ESE 5.0 mph 7.0 mph 96 % 0.00 in 0 W/m2
04:18 34.9 °F 33.9 °F 29.90 in ESE 4.0 mph 6.0 mph 96 % 0.00 in 0 W/m2
04:19 34.9 °F 33.9 °F 29.89 in ESE 4.0 mph 6.0 mph 96 % 0.00 in 0 W/m2
04:20 34.9 °F 34.1 °F 29.89 in ESE 4.0 mph 6.0 mph 97 % 0.00 in 0 W/m2
04:21 34.9 °F 34.1 °F 29.90 in ESE 4.0 mph 7.0 mph 97 % 0.00 in 0 W/m2
04:22 34.9 °F 33.9 °F 29.90 in ESE 5.0 mph 7.0 mph 96 % 0.00 in 0 W/m2
04:23 34.9 °F 34.1 °F 29.90 in ESE 5.0 mph 7.0 mph 97 % 0.00 in 0 W/m2
04:25 34.9 °F 33.9 °F 29.89 in ESE 4.0 mph 7.0 mph 96 % 0.00 in 0 W/m2
04:29 34.9 °F 33.9 °F 29.90 in SE 5.0 mph 8.0 mph 96 % 0.00 in 0 W/m2
04:36 34.9 °F 34.1 °F 29.89 in SE 5.0 mph 8.0 mph 97 % 0.00 in 0 W/m2
04:41 34.9 °F 34.1 °F 29.89 in ESE 5.0 mph 7.0 mph 97 % 0.00 in 0 W/m2
04:42 34.9 °F 34.1 °F 29.89 in ESE 5.0 mph 8.0 mph 97 % 0.00 in 0 W/m2
04:43 34.9 °F 34.1 °F 29.89 in ESE 6.0 mph 9.0 mph 97 % 0.00 in 0 W/m2
04:45 34.9 °F 34.1 °F 29.88 in SE 6.0 mph 9.0 mph 97 % 0.00 in 0 W/m2
04:46 34.9 °F 34.1 °F 29.88 in SE 4.0 mph 7.0 mph 97 % 0.00 in 0 W/m2
04:47 34.9 °F 34.1 °F 29.88 in ESE 4.0 mph 7.0 mph 97 % 0.00 in 0 W/m2
04:48 35.1 °F 34.3 °F 29.88 in ESE 4.0 mph 7.0 mph 97 % 0.00 in 0 W/m2
04:50 34.9 °F 34.1 °F 29.88 in ESE 4.0 mph 8.0 mph 97 % 0.00 in 0 W/m2
04:51 34.9 °F 34.1 °F 29.88 in ESE 5.0 mph 8.0 mph 97 % 0.00 in 0 W/m2
04:52 34.9 °F 34.1 °F 29.88 in ESE 6.0 mph 9.0 mph 97 % 0.00 in 0 W/m2
04:54 35.1 °F 34.3 °F 29.88 in SE 5.0 mph 8.0 mph 97 % 0.00 in 0 W/m2
04:58 35.1 °F 34.3 °F 29.87 in ESE 5.0 mph 8.0 mph 97 % 0.00 in 0 W/m2
04:59 35.1 °F 34.3 °F 29.87 in ESE 5.0 mph 8.0 mph 97 % 0.00 in 0 W/m2
05:00 35.1 °F 34.3 °F 29.87 in ESE 4.0 mph 6.0 mph 97 % 0.00 in 0 W/m2
05:01 35.1 °F 34.3 °F 29.88 in ESE 3.0 mph 6.0 mph 97 % 0.00 in 0 W/m2
05:02 35.1 °F 34.3 °F 29.88 in ESE 3.0 mph 7.0 mph 97 % 0.00 in 0 W/m2
05:05 35.1 °F 34.3 °F 29.87 in SE 5.0 mph 8.0 mph 97 % 0.00 in 0 W/m2
05:06 35.1 °F 34.3 °F 29.87 in SE 5.0 mph 8.0 mph 97 % 0.00 in 0 W/m2
05:07 35.1 °F 34.3 °F 29.87 in SE 6.0 mph 10.0 mph 97 % 0.00 in 0 W/m2
05:09 35.1 °F 34.3 °F 29.87 in SE 6.0 mph 10.0 mph 97 % 0.00 in 0 W/m2
05:10 35.1 °F 34.3 °F 29.87 in SE 6.0 mph 10.0 mph 97 % 0.00 in 0 W/m2
05:11 35.1 °F 34.3 °F 29.87 in SE 5.0 mph 9.0 mph 97 % 0.00 in 0 W/m2
05:12 35.1 °F 34.3 °F 29.87 in SE 5.0 mph 9.0 mph 97 % 0.00 in 0 W/m2
05:15 35.1 °F 34.3 °F 29.87 in SE 4.0 mph 6.0 mph 97 % 0.00 in 0 W/m2
05:16 35.1 °F 34.3 °F 29.87 in SE 4.0 mph 7.0 mph 97 % 0.00 in 0 W/m2
05:17 35.1 °F 34.3 °F 29.87 in SE 5.0 mph 7.0 mph 97 % 0.00 in 0 W/m2
05:18 35.1 °F 34.3 °F 29.87 in ESE 5.0 mph 7.0 mph 97 % 0.00 in 0 W/m2
05:20 35.1 °F 34.3 °F 29.87 in ESE 5.0 mph 8.0 mph 97 % 0.00 in 0 W/m2
05:21 35.1 °F 34.3 °F 29.87 in ESE 6.0 mph 10.0 mph 97 % 0.00 in 0 W/m2
05:22 35.1 °F 34.3 °F 29.87 in ESE 7.0 mph 10.0 mph 97 % 0.00 in 0 W/m2
05:23 35.1 °F 34.3 °F 29.87 in SE 7.0 mph 10.0 mph 97 % 0.00 in 0 W/m2
05:26 35.1 °F 34.3 °F 29.86 in ESE 5.0 mph 9.0 mph 97 % 0.00 in 0 W/m2
05:27 35.1 °F 34.3 °F 29.86 in ESE 5.0 mph 9.0 mph 97 % 0.00 in 0 W/m2
05:28 35.1 °F 34.3 °F 29.86 in ESE 4.0 mph 10.0 mph 97 % 0.00 in 0 W/m2
05:30 35.1 °F 34.3 °F 29.86 in ESE 4.0 mph 10.0 mph 97 % 0.00 in 0 W/m2
05:31 35.1 °F 34.3 °F 29.86 in ESE 4.0 mph 10.0 mph 97 % 0.00 in 0 W/m2
05:32 35.1 °F 34.3 °F 29.86 in ESE 5.0 mph 8.0 mph 97 % 0.00 in 0 W/m2
05:34 35.1 °F 34.3 °F 29.86 in ESE 5.0 mph 8.0 mph 97 % 0.00 in 0 W/m2
05:35 35.1 °F 34.0 °F 29.86 in ESE 3.0 mph 6.0 mph 96 % 0.00 in 0 W/m2
05:36 35.1 °F 34.0 °F 29.86 in ESE 3.0 mph 6.0 mph 96 % 0.00 in 0 W/m2
05:37 35.1 °F 34.0 °F 29.86 in ESE 3.0 mph 7.0 mph 96 % 0.00 in 0 W/m2
05:38 35.1 °F 34.0 °F 29.86 in ESE 4.0 mph 8.0 mph 96 % 0.00 in 0 W/m2
05:39 35.1 °F 34.0 °F 29.86 in ESE 5.0 mph 8.0 mph 96 % 0.00 in 0 W/m2
05:40 35.1 °F 34.3 °F 29.86 in ESE 6.0 mph 9.0 mph 97 % 0.00 in 0 W/m2
05:41 35.1 °F 34.3 °F 29.86 in ESE 6.0 mph 9.0 mph 97 % 0.00 in 0 W/m2
05:43 35.1 °F 34.3 °F 29.86 in ESE 4.0 mph 8.0 mph 97 % 0.00 in 0 W/m2
05:44 35.1 °F 34.0 °F 29.86 in ESE 4.0 mph 6.0 mph 96 % 0.00 in 0 W/m2
05:47 35.1 °F 34.3 °F 29.86 in SE 5.0 mph 8.0 mph 97 % 0.00 in 0 W/m2
05:48 35.1 °F 34.0 °F 29.85 in SE 4.0 mph 7.0 mph 96 % 0.00 in 0 W/m2
05:49 35.1 °F 34.0 °F 29.85 in ESE 3.0 mph 7.0 mph 96 % 0.00 in 0 W/m2
05:50 35.1 °F 34.0 °F 29.85 in ESE 3.0 mph 7.0 mph 96 % 0.00 in 0 W/m2
05:52 35.1 °F 34.3 °F 29.85 in ESE 4.0 mph 8.0 mph 97 % 0.00 in 0 W/m2
05:54 35.1 °F 34.3 °F 29.85 in ESE 4.0 mph 7.0 mph 97 % 0.00 in 0 W/m2
05:56 35.1 °F 34.0 °F 29.85 in ESE 3.0 mph 6.0 mph 96 % 0.00 in 0 W/m2
05:57 35.1 °F 34.3 °F 29.85 in ESE 3.0 mph 5.0 mph 97 % 0.00 in 0 W/m2
05:58 35.1 °F 34.3 °F 29.84 in ESE 3.0 mph 5.0 mph 97 % 0.00 in 0 W/m2
05:59 35.1 °F 34.3 °F 29.84 in ESE 3.0 mph 6.0 mph 97 % 0.00 in 0 W/m2
06:00 35.1 °F 34.3 °F 29.84 in ESE 4.0 mph 7.0 mph 97 % 0.00 in 0 W/m2
06:01 35.1 °F 34.3 °F 29.84 in ESE 4.0 mph 7.0 mph 97 % 0.00 in 0 W/m2
06:02 35.1 °F 34.3 °F 29.84 in ESE 5.0 mph 8.0 mph 97 % 0.00 in 0 W/m2
06:03 35.1 °F 34.3 °F 29.84 in ESE 5.0 mph 8.0 mph 97 % 0.00 in 0 W/m2
06:04 35.1 °F 34.3 °F 29.84 in SE 5.0 mph 9.0 mph 97 % 0.00 in 0 W/m2
06:06 35.1 °F 34.3 °F 29.84 in SE 5.0 mph 10.0 mph 97 % 0.00 in 0 W/m2
06:08 35.1 °F 34.3 °F 29.84 in SE 6.0 mph 9.0 mph 97 % 0.00 in 0 W/m2
06:11 35.1 °F 34.0 °F 29.84 in SE 7.0 mph 10.0 mph 96 % 0.00 in 0 W/m2
06:12 35.1 °F 34.3 °F 29.84 in SE 6.0 mph 10.0 mph 97 % 0.00 in 0 W/m2
06:13 35.1 °F 34.0 °F 29.84 in SE 5.0 mph 8.0 mph 96 % 0.00 in 0 W/m2
06:14 35.1 °F 34.0 °F 29.84 in SE 4.0 mph 7.0 mph 96 % 0.00 in 0 W/m2
06:16 35.1 °F 34.3 °F 29.84 in ESE 4.0 mph 8.0 mph 97 % 0.00 in 0 W/m2
06:17 35.1 °F 34.3 °F 29.84 in SE 4.0 mph 8.0 mph 97 % 0.00 in 0 W/m2
06:18 35.1 °F 34.0 °F 29.84 in SE 4.0 mph 8.0 mph 96 % 0.00 in 0 W/m2
06:19 35.1 °F 34.0 °F 29.84 in SE 5.0 mph 8.0 mph 96 % 0.00 in 0 W/m2
06:20 35.1 °F 34.3 °F 29.85 in SE 6.0 mph 9.0 mph 97 % 0.00 in 0 W/m2
06:21 35.1 °F 34.3 °F 29.85 in ESE 6.0 mph 10.0 mph 97 % 0.00 in 0 W/m2
06:22 35.1 °F 34.3 °F 29.85 in ESE 6.0 mph 10.0 mph 97 % 0.00 in 0 W/m2
06:23 35.1 °F 34.3 °F 29.85 in ESE 6.0 mph 10.0 mph 97 % 0.00 in 0 W/m2
06:26 35.1 °F 34.3 °F 29.85 in SE 4.0 mph 10.0 mph 97 % 0.00 in 0 W/m2
06:27 35.1 °F 34.0 °F 29.85 in SE 5.0 mph 10.0 mph 96 % 0.00 in 0 W/m2
06:29 35.1 °F 34.0 °F 29.84 in ESE 8.0 mph 12.0 mph 96 % 0.00 in 0 W/m2
06:32 35.1 °F 34.0 °F 29.84 in ESE 8.0 mph 11.0 mph 96 % 0.00 in 0 W/m2
06:33 35.1 °F 34.0 °F 29.84 in ESE 8.0 mph 11.0 mph 96 % 0.00 in 0 W/m2
06:36 35.1 °F 34.0 °F 29.84 in SE 6.0 mph 11.0 mph 96 % 0.00 in 0 W/m2
06:37 35.1 °F 34.0 °F 29.84 in SE 7.0 mph 12.0 mph 96 % 0.00 in 0 W/m2
06:38 35.1 °F 34.0 °F 29.84 in SE 7.0 mph 12.0 mph 96 % 0.00 in 0 W/m2
06:39 35.1 °F 34.0 °F 29.84 in ESE 7.0 mph 12.0 mph 96 % 0.00 in 0 W/m2
06:40 35.1 °F 34.0 °F 29.84 in ESE 5.0 mph 7.0 mph 96 % 0.00 in 0 W/m2
06:41 35.1 °F 34.0 °F 29.84 in ESE 4.0 mph 7.0 mph 96 % 0.00 in 0 W/m2
06:42 35.1 °F 34.0 °F 29.84 in ESE 4.0 mph 7.0 mph 96 % 0.00 in 0 W/m2
06:43 35.1 °F 34.0 °F 29.84 in ESE 4.0 mph 7.0 mph 96 % 0.00 in 0 W/m2
06:44 35.1 °F 34.0 °F 29.84 in ESE 6.0 mph 10.0 mph 96 % 0.00 in 0 W/m2
06:45 35.1 °F 34.0 °F 29.84 in ESE 6.0 mph 10.0 mph 96 % 0.00 in 0 W/m2
06:48 35.1 °F 34.0 °F 29.83 in SE 6.0 mph 8.0 mph 96 % 0.00 in 0 W/m2
06:50 35.1 °F 34.0 °F 29.83 in ESE 6.0 mph 10.0 mph 96 % 0.00 in 0 W/m2
06:51 35.1 °F 34.0 °F 29.83 in SE 7.0 mph 10.0 mph 96 % 0.00 in 0 W/m2
06:53 35.1 °F 34.0 °F 29.83 in SE 5.0 mph 8.0 mph 96 % 0.00 in 0 W/m2
06:54 35.1 °F 34.0 °F 29.83 in SE 5.0 mph 8.0 mph 96 % 0.00 in 0 W/m2
06:55 35.1 °F 34.0 °F 29.83 in SE 6.0 mph 10.0 mph 96 % 0.00 in 0 W/m2
06:56 35.1 °F 34.0 °F 29.83 in SE 6.0 mph 10.0 mph 96 % 0.00 in 0 W/m2
06:58 35.1 °F 34.0 °F 29.83 in ESE 5.0 mph 11.0 mph 96 % 0.00 in 0 W/m2
06:59 35.1 °F 34.0 °F 29.83 in ESE 6.0 mph 11.0 mph 96 % 0.00 in 0 W/m2
07:00 35.1 °F 34.0 °F 29.83 in SE 5.0 mph 11.0 mph 96 % 0.00 in 0 W/m2
07:01 35.1 °F 34.0 °F 29.83 in SE 5.0 mph 8.0 mph 96 % 0.00 in 0 W/m2
07:02 35.1 °F 34.0 °F 29.83 in ESE 3.0 mph 5.0 mph 96 % 0.00 in 0 W/m2
07:03 35.1 °F 34.0 °F 29.83 in ESE 4.0 mph 6.0 mph 96 % 0.00 in 0 W/m2
07:04 35.1 °F 34.0 °F 29.83 in ESE 3.0 mph 6.0 mph 96 % 0.00 in 0 W/m2
07:06 35.1 °F 34.0 °F 29.84 in ESE 3.0 mph 6.0 mph 96 % 0.00 in 0 W/m2
07:07 35.2 °F 34.2 °F 29.83 in SE 2.0 mph 4.0 mph 96 % 0.00 in 0 W/m2
07:08 35.2 °F 34.2 °F 29.83 in ESE 3.0 mph 7.0 mph 96 % 0.00 in 0 W/m2
07:09 35.1 °F 34.0 °F 29.83 in ESE 6.0 mph 8.0 mph 96 % 0.00 in 0 W/m2
07:13 35.2 °F 34.2 °F 29.83 in ESE 6.0 mph 8.0 mph 96 % 0.00 in 0 W/m2
07:18 35.2 °F 34.2 °F 29.83 in ESE 5.0 mph 8.0 mph 96 % 0.00 in 0 W/m2
07:20 35.2 °F 34.2 °F 29.83 in ESE 6.0 mph 8.0 mph 96 % 0.00 in 0 W/m2
07:21 35.2 °F 34.2 °F 29.83 in ESE 5.0 mph 8.0 mph 96 % 0.00 in 0 W/m2
07:22 35.2 °F 34.2 °F 29.83 in ESE 6.0 mph 9.0 mph 96 % 0.00 in 0 W/m2
07:25 35.2 °F 34.2 °F 29.83 in ESE 5.0 mph 7.0 mph 96 % 0.00 in 0 W/m2
07:26 35.2 °F 34.2 °F 29.82 in ESE 5.0 mph 7.0 mph 96 % 0.00 in 0 W/m2
07:29 35.2 °F 34.2 °F 29.82 in ESE 4.0 mph 6.0 mph 96 % 0.00 in 0 W/m2
07:31 35.2 °F 34.2 °F 29.82 in SE 4.0 mph 5.0 mph 96 % 0.00 in 0 W/m2
07:32 35.2 °F 34.2 °F 29.82 in SE 4.0 mph 5.0 mph 96 % 0.00 in 0 W/m2
07:34 35.2 °F 34.2 °F 29.82 in ESE 5.0 mph 8.0 mph 96 % 0.00 in 0 W/m2
07:35 35.2 °F 34.2 °F 29.82 in SE 5.0 mph 8.0 mph 96 % 0.00 in 0 W/m2
07:36 35.2 °F 34.2 °F 29.82 in SE 5.0 mph 6.0 mph 96 % 0.00 in 0 W/m2
07:37 35.2 °F 34.2 °F 29.82 in SE 4.0 mph 6.0 mph 96 % 0.00 in 0 W/m2
07:38 35.2 °F 34.2 °F 29.82 in ESE 3.0 mph 6.0 mph 96 % 0.00 in 0 W/m2
07:41 35.2 °F 34.2 °F 29.82 in SE 4.0 mph 7.0 mph 96 % 0.00 in 0 W/m2
07:42 35.2 °F 34.2 °F 29.82 in SE 4.0 mph 7.0 mph 96 % 0.00 in 0 W/m2
07:45 35.2 °F 34.2 °F 29.82 in ESE 5.0 mph 8.0 mph 96 % 0.00 in 0 W/m2
07:52 35.2 °F 34.2 °F 29.81 in SE 4.0 mph 8.0 mph 96 % 0.00 in 0 W/m2
07:53 35.2 °F 34.2 °F 29.81 in SE 4.0 mph 7.0 mph 96 % 0.00 in 0 W/m2
07:55 35.2 °F 34.2 °F 29.82 in SE 5.0 mph 8.0 mph 96 % 0.00 in 0 W/m2
07:56 35.2 °F 34.2 °F 29.81 in SE 5.0 mph 8.0 mph 96 % 0.00 in 0 W/m2
07:57 35.2 °F 34.2 °F 29.81 in SE 5.0 mph 8.0 mph 96 % 0.00 in 0 W/m2
07:58 35.2 °F 34.2 °F 29.81 in SE 5.0 mph 9.0 mph 96 % 0.00 in 0 W/m2
07:59 35.2 °F 34.2 °F 29.81 in ESE 5.0 mph 9.0 mph 96 % 0.00 in 0 W/m2
08:00 35.4 °F 34.4 °F 29.81 in ESE 5.0 mph 9.0 mph 96 % 0.00 in 0 W/m2
08:02 35.4 °F 34.4 °F 29.81 in SE 5.0 mph 9.0 mph 96 % 0.00 in 0 W/m2
08:05 35.4 °F 34.4 °F 29.81 in SE 4.0 mph 8.0 mph 96 % 0.00 in 0 W/m2
08:06 35.4 °F 34.4 °F 29.81 in SE 3.0 mph 8.0 mph 96 % 0.00 in 0 W/m2
08:07 35.4 °F 34.4 °F 29.82 in SE 3.0 mph 6.0 mph 96 % 0.00 in 0 W/m2
08:08 35.4 °F 34.4 °F 29.81 in SE 4.0 mph 7.0 mph 96 % 0.00 in 0 W/m2
08:11 35.4 °F 34.4 °F 29.81 in ESE 6.0 mph 8.0 mph 96 % 0.00 in 0 W/m2
08:14 35.4 °F 34.4 °F 29.81 in ESE 5.0 mph 8.0 mph 96 % 0.00 in 0 W/m2
08:15 35.4 °F 34.4 °F 29.81 in ESE 3.0 mph 5.0 mph 96 % 0.00 in 0 W/m2
08:17 35.4 °F 34.4 °F 29.81 in SE 3.0 mph 6.0 mph 96 % 0.00 in 0 W/m2
08:18 35.4 °F 34.4 °F 29.81 in ESE 4.0 mph 6.0 mph 96 % 0.00 in 0 W/m2
08:21 35.4 °F 34.4 °F 29.81 in SE 6.0 mph 8.0 mph 96 % 0.00 in 0 W/m2
08:23 35.4 °F 34.4 °F 29.81 in ESE 6.0 mph 9.0 mph 96 % 0.00 in 0 W/m2
08:25 35.4 °F 34.4 °F 29.81 in SE 5.0 mph 9.0 mph 96 % 0.00 in 0 W/m2
08:26 35.4 °F 34.4 °F 29.81 in ESE 6.0 mph 11.0 mph 96 % 0.00 in 0 W/m2
08:28 35.4 °F 34.4 °F 29.81 in ESE 7.0 mph 10.0 mph 96 % 0.00 in 0 W/m2
08:30 35.4 °F 34.4 °F 29.81 in SE 5.0 mph 7.0 mph 96 % 0.00 in 0 W/m2
08:31 35.4 °F 34.4 °F 29.81 in SE 5.0 mph 7.0 mph 96 % 0.00 in 0 W/m2
08:32 35.4 °F 34.4 °F 29.81 in SE 4.0 mph 7.0 mph 96 % 0.00 in 0 W/m2
08:33 35.4 °F 34.4 °F 29.81 in ESE 4.0 mph 8.0 mph 96 % 0.00 in 0 W/m2
08:34 35.4 °F 34.4 °F 29.81 in ESE 5.0 mph 8.0 mph 96 % 0.00 in 0 W/m2
08:35 35.4 °F 34.4 °F 29.81 in ESE 6.0 mph 8.0 mph 96 % 0.00 in 0 W/m2
08:36 35.6 °F 34.6 °F 29.81 in SE 6.0 mph 8.0 mph 96 % 0.00 in 0 W/m2
08:38 35.6 °F 34.6 °F 29.81 in SE 4.0 mph 6.0 mph 96 % 0.00 in 0 W/m2
08:40 35.6 °F 34.6 °F 29.81 in ESE 3.0 mph 5.0 mph 96 % 0.00 in 0 W/m2
08:41 35.6 °F 34.6 °F 29.81 in SE 4.0 mph 7.0 mph 96 % 0.00 in 0 W/m2
08:42 35.6 °F 34.6 °F 29.81 in SE 4.0 mph 7.0 mph 96 % 0.00 in 0 W/m2
08:43 35.6 °F 34.6 °F 29.80 in SE 4.0 mph 7.0 mph 96 % 0.00 in 0 W/m2
08:44 35.6 °F 34.6 °F 29.81 in SE 4.0 mph 7.0 mph 96 % 0.00 in 0 W/m2
08:47 35.6 °F 34.6 °F 29.80 in ESE 5.0 mph 11.0 mph 96 % 0.00 in 0 W/m2
08:48 35.6 °F 34.6 °F 29.80 in SE 7.0 mph 13.0 mph 96 % 0.00 in 0 W/m2
08:52 35.6 °F 34.6 °F 29.80 in SE 6.0 mph 12.0 mph 96 % 0.00 in 0 W/m2
08:53 35.6 °F 34.6 °F 29.80 in SE 6.0 mph 9.0 mph 96 % 0.00 in 0 W/m2
08:54 35.6 °F 34.6 °F 29.80 in SE 5.0 mph 9.0 mph 96 % 0.00 in 0 W/m2
08:55 35.6 °F 34.6 °F 29.80 in SE 5.0 mph 9.0 mph 96 % 0.00 in 0 W/m2
08:57 35.6 °F 34.6 °F 29.80 in SE 5.0 mph 7.0 mph 96 % 0.00 in 0 W/m2
08:59 35.6 °F 34.6 °F 29.80 in ESE 5.0 mph 7.0 mph 96 % 0.00 in 0 W/m2
09:00 35.6 °F 34.6 °F 29.80 in ESE 4.0 mph 6.0 mph 96 % 0.00 in 0 W/m2
09:04 35.6 °F 34.6 °F 29.79 in ESE 4.0 mph 8.0 mph 96 % 0.00 in 0 W/m2
09:05 35.6 °F 34.6 °F 29.79 in ESE 4.0 mph 8.0 mph 96 % 0.00 in 0 W/m2
09:06 35.6 °F 34.6 °F 29.79 in ESE 5.0 mph 8.0 mph 96 % 0.00 in 0 W/m2
09:08 35.6 °F 34.6 °F 29.79 in ESE 5.0 mph 8.0 mph 96 % 0.00 in 0 W/m2
09:10 35.6 °F 34.6 °F 29.79 in SE 4.0 mph 8.0 mph 96 % 0.00 in 0 W/m2
09:12 35.6 °F 34.6 °F 29.79 in SE 4.0 mph 6.0 mph 96 % 0.00 in 0 W/m2
09:14 35.8 °F 34.8 °F 29.79 in SE 4.0 mph 6.0 mph 96 % 0.00 in 0 W/m2
09:15 35.8 °F 34.8 °F 29.79 in SE 4.0 mph 8.0 mph 96 % 0.00 in 0 W/m2
09:16 35.8 °F 34.8 °F 29.79 in SE 5.0 mph 8.0 mph 96 % 0.00 in 0 W/m2
09:18 35.8 °F 34.8 °F 29.78 in SE 5.0 mph 8.0 mph 96 % 0.00 in 5 W/m2
09:19 35.6 °F 34.6 °F 29.78 in SE 5.0 mph 8.0 mph 96 % 0.00 in 5 W/m2
09:20 35.8 °F 34.8 °F 29.78 in ESE 6.0 mph 10.0 mph 96 % 0.00 in 5 W/m2
09:21 35.8 °F 34.8 °F 29.79 in SE 7.0 mph 10.0 mph 96 % 0.00 in 5 W/m2
09:22 35.8 °F 34.8 °F 29.78 in SE 7.0 mph 10.0 mph 96 % 0.00 in 5 W/m2
09:23 35.8 °F 34.8 °F 29.78 in SE 7.0 mph 10.0 mph 96 % 0.00 in 5 W/m2
09:24 35.8 °F 34.8 °F 29.78 in SE 7.0 mph 9.0 mph 96 % 0.00 in 5 W/m2
09:26 35.8 °F 34.8 °F 29.78 in SE 7.0 mph 10.0 mph 96 % 0.00 in 5 W/m2
09:27 35.8 °F 34.8 °F 29.78 in SE 7.0 mph 10.0 mph 96 % 0.00 in 7 W/m2
09:29 35.8 °F 34.8 °F 29.78 in SE 7.0 mph 10.0 mph 96 % 0.00 in 7 W/m2
09:30 35.8 °F 34.8 °F 29.78 in SE 6.0 mph 10.0 mph 96 % 0.00 in 7 W/m2
09:32 35.8 °F 34.8 °F 29.78 in SE 5.0 mph 8.0 mph 96 % 0.00 in 7 W/m2
09:33 35.8 °F 34.8 °F 29.78 in SE 5.0 mph 8.0 mph 96 % 0.00 in 9 W/m2
09:38 35.8 °F 34.8 °F 29.78 in SE 7.0 mph 11.0 mph 96 % 0.00 in 9 W/m2
09:39 35.8 °F 34.8 °F 29.78 in SE 7.0 mph 11.0 mph 96 % 0.00 in 11 W/m2
09:43 35.8 °F 34.8 °F 29.78 in SE 8.0 mph 12.0 mph 96 % 0.00 in 9 W/m2
09:46 35.8 °F 34.8 °F 29.78 in SE 7.0 mph 12.0 mph 96 % 0.00 in 9 W/m2
09:47 35.8 °F 34.8 °F 29.78 in SE 8.0 mph 12.0 mph 96 % 0.00 in 9 W/m2
09:48 35.8 °F 34.8 °F 29.78 in SE 7.0 mph 11.0 mph 96 % 0.00 in 9 W/m2
09:50 35.8 °F 34.8 °F 29.77 in SE 7.0 mph 10.0 mph 96 % 0.00 in 9 W/m2
09:52 35.8 °F 34.8 °F 29.77 in SE 7.0 mph 9.0 mph 96 % 0.00 in 11 W/m2
09:58 35.8 °F 34.8 °F 29.77 in SE 5.0 mph 8.0 mph 96 % 0.00 in 7 W/m2
09:59 35.8 °F 34.8 °F 29.77 in SE 5.0 mph 8.0 mph 96 % 0.00 in 7 W/m2
10:00 35.8 °F 34.8 °F 29.77 in SE 4.0 mph 8.0 mph 96 % 0.00 in 7 W/m2
10:02 35.8 °F 34.8 °F 29.76 in SE 4.0 mph 6.0 mph 96 % 0.00 in 11 W/m2
10:03 35.8 °F 34.8 °F 29.76 in SE 4.0 mph 7.0 mph 96 % 0.00 in 11 W/m2
10:04 35.8 °F 34.8 °F 29.76 in SE 5.0 mph 7.0 mph 96 % 0.00 in 11 W/m2
10:06 35.8 °F 34.8 °F 29.76 in SE 5.0 mph 7.0 mph 96 % 0.00 in 11 W/m2
10:08 35.8 °F 34.8 °F 29.76 in SE 6.0 mph 10.0 mph 96 % 0.00 in 12 W/m2
10:09 35.8 °F 34.8 °F 29.76 in SE 6.0 mph 10.0 mph 96 % 0.00 in 12 W/m2
10:11 35.8 °F 34.8 °F 29.76 in SE 6.0 mph 10.0 mph 96 % 0.00 in 14 W/m2
10:12 35.8 °F 34.8 °F 29.76 in SE 7.0 mph 11.0 mph 96 % 0.00 in 14 W/m2
10:13 35.8 °F 34.8 °F 29.76 in SE 8.0 mph 11.0 mph 96 % 0.00 in 14 W/m2
10:14 35.8 °F 34.8 °F 29.76 in SE 8.0 mph 11.0 mph 96 % 0.00 in 14 W/m2
10:16 35.8 °F 34.8 °F 29.76 in SE 7.0 mph 10.0 mph 96 % 0.00 in 16 W/m2
10:18 35.8 °F 34.8 °F 29.76 in SE 8.0 mph 10.0 mph 96 % 0.00 in 14 W/m2
10:19 35.8 °F 34.8 °F 29.76 in SE 7.0 mph 10.0 mph 96 % 0.00 in 14 W/m2
10:20 35.8 °F 34.8 °F 29.76 in SSE 6.0 mph 8.0 mph 96 % 0.00 in 16 W/m2
10:22 35.8 °F 34.8 °F 29.76 in SE 6.0 mph 8.0 mph 96 % 0.00 in 16 W/m2
10:23 35.8 °F 34.8 °F 29.76 in SE 6.0 mph 9.0 mph 96 % 0.00 in 16 W/m2
10:24 35.8 °F 34.8 °F 29.76 in SE 6.0 mph 9.0 mph 96 % 0.00 in 16 W/m2
10:25 35.8 °F 34.8 °F 29.75 in SE 6.0 mph 10.0 mph 96 % 0.00 in 16 W/m2
10:26 35.8 °F 34.8 °F 29.75 in SE 6.0 mph 10.0 mph 96 % 0.00 in 18 W/m2
10:28 35.8 °F 34.8 °F 29.75 in SE 7.0 mph 14.0 mph 96 % 0.00 in 18 W/m2
10:29 35.8 °F 34.8 °F 29.75 in SE 7.0 mph 14.0 mph 96 % 0.00 in 18 W/m2
10:30 35.8 °F 34.8 °F 29.75 in SE 8.0 mph 14.0 mph 96 % 0.00 in 19 W/m2
10:31 35.8 °F 34.8 °F 29.75 in SE 7.0 mph 14.0 mph 96 % 0.00 in 19 W/m2
10:32 35.8 °F 34.8 °F 29.75 in SE 6.0 mph 10.0 mph 96 % 0.00 in 19 W/m2
10:33 35.8 °F 34.8 °F 29.75 in SE 6.0 mph 10.0 mph 96 % 0.00 in 19 W/m2
10:35 35.8 °F 34.8 °F 29.75 in SE 7.0 mph 12.0 mph 96 % 0.00 in 18 W/m2
10:36 35.8 °F 34.8 °F 29.75 in SE 7.0 mph 9.0 mph 96 % 0.00 in 16 W/m2
10:37 35.8 °F 34.8 °F 29.75 in SE 6.0 mph 9.0 mph 96 % 0.00 in 16 W/m2
10:38 35.8 °F 34.8 °F 29.75 in SE 6.0 mph 9.0 mph 96 % 0.00 in 16 W/m2
10:39 35.8 °F 34.8 °F 29.75 in SE 6.0 mph 9.0 mph 96 % 0.00 in 16 W/m2
10:40 35.8 °F 34.8 °F 29.75 in ESE 7.0 mph 10.0 mph 96 % 0.00 in 21 W/m2
10:41 36.0 °F 34.9 °F 29.75 in ESE 7.0 mph 11.0 mph 96 % 0.00 in 25 W/m2
10:43 36.0 °F 34.9 °F 29.75 in SE 6.0 mph 11.0 mph 96 % 0.00 in 19 W/m2
10:44 36.0 °F 34.9 °F 29.75 in SE 6.0 mph 10.0 mph 96 % 0.00 in 19 W/m2
10:45 36.0 °F 34.9 °F 29.75 in SE 5.0 mph 9.0 mph 96 % 0.00 in 21 W/m2
10:46 36.0 °F 34.9 °F 29.75 in SE 5.0 mph 9.0 mph 96 % 0.00 in 18 W/m2
10:47 35.8 °F 34.8 °F 29.75 in SE 4.0 mph 6.0 mph 96 % 0.00 in 18 W/m2
10:49 36.0 °F 34.9 °F 29.75 in SE 5.0 mph 9.0 mph 96 % 0.00 in 18 W/m2
10:50 36.0 °F 34.9 °F 29.75 in SE 5.0 mph 7.0 mph 96 % 0.00 in 19 W/m2
10:52 36.0 °F 34.9 °F 29.75 in SE 6.0 mph 11.0 mph 96 % 0.00 in 23 W/m2
10:54 36.0 °F 34.9 °F 29.74 in SE 9.0 mph 12.0 mph 96 % 0.00 in 19 W/m2
10:56 36.0 °F 34.9 °F 29.74 in SE 7.0 mph 10.0 mph 96 % 0.00 in 21 W/m2
10:58 36.0 °F 34.9 °F 29.74 in SE 7.0 mph 10.0 mph 96 % 0.00 in 23 W/m2
10:59 36.0 °F 34.9 °F 29.74 in SE 6.0 mph 10.0 mph 96 % 0.00 in 23 W/m2
11:00 36.0 °F 34.9 °F 29.74 in SE 5.0 mph 8.0 mph 96 % 0.00 in 26 W/m2
11:01 36.0 °F 34.9 °F 29.74 in SE 5.0 mph 7.0 mph 96 % 0.00 in 26 W/m2
11:02 36.0 °F 34.9 °F 29.74 in SE 4.0 mph 7.0 mph 96 % 0.00 in 28 W/m2
11:03 36.0 °F 34.9 °F 29.74 in SE 5.0 mph 9.0 mph 96 % 0.00 in 28 W/m2
11:04 36.0 °F 34.9 °F 29.73 in SE 6.0 mph 9.0 mph 96 % 0.00 in 28 W/m2
11:05 36.0 °F 34.9 °F 29.74 in SE 6.0 mph 9.0 mph 96 % 0.00 in 26 W/m2
11:06 36.0 °F 34.9 °F 29.74 in SE 5.0 mph 7.0 mph 96 % 0.00 in 25 W/m2
11:07 36.0 °F 34.9 °F 29.74 in SE 5.0 mph 7.0 mph 96 % 0.00 in 25 W/m2
11:08 36.0 °F 34.9 °F 29.74 in SE 6.0 mph 12.0 mph 96 % 0.00 in 23 W/m2
11:09 36.0 °F 34.9 °F 29.74 in SE 6.0 mph 12.0 mph 96 % 0.00 in 23 W/m2
11:10 36.0 °F 34.9 °F 29.74 in SE 7.0 mph 12.0 mph 96 % 0.00 in 23 W/m2
11:11 36.0 °F 34.9 °F 29.73 in SE 7.0 mph 12.0 mph 96 % 0.00 in 25 W/m2
11:15 36.0 °F 34.9 °F 29.73 in SE 6.0 mph 10.0 mph 96 % 0.00 in 26 W/m2
11:16 36.0 °F 34.9 °F 29.73 in SE 6.0 mph 9.0 mph 96 % 0.00 in 26 W/m2
11:20 36.1 °F 35.1 °F 29.73 in SE 4.0 mph 6.0 mph 96 % 0.00 in 23 W/m2
11:21 36.1 °F 35.1 °F 29.73 in SE 4.0 mph 9.0 mph 96 % 0.00 in 23 W/m2
11:25 36.1 °F 35.1 °F 29.73 in SE 7.0 mph 10.0 mph 96 % 0.00 in 19 W/m2
11:26 36.1 °F 35.1 °F 29.72 in ESE 4.0 mph 7.0 mph 96 % 0.00 in 16 W/m2
11:27 36.1 °F 35.1 °F 29.72 in ESE 4.0 mph 7.0 mph 96 % 0.00 in 16 W/m2
11:28 36.1 °F 35.1 °F 29.72 in ESE 3.0 mph 6.0 mph 96 % 0.00 in 12 W/m2
11:29 36.1 °F 35.1 °F 29.72 in SE 4.0 mph 8.0 mph 96 % 0.00 in 11 W/m2
11:30 36.1 °F 35.1 °F 29.72 in SE 4.0 mph 8.0 mph 96 % 0.00 in 12 W/m2
11:31 36.1 °F 35.1 °F 29.73 in SE 4.0 mph 8.0 mph 96 % 0.00 in 12 W/m2
11:32 36.1 °F 35.1 °F 29.73 in SE 3.0 mph 8.0 mph 96 % 0.00 in 12 W/m2
11:36 36.1 °F 35.1 °F 29.73 in SE 4.0 mph 6.0 mph 96 % 0.00 in 12 W/m2
11:38 36.1 °F 35.1 °F 29.73 in SE 5.0 mph 7.0 mph 96 % 0.00 in 21 W/m2
11:41 36.1 °F 35.1 °F 29.72 in ESE 5.0 mph 7.0 mph 96 % 0.00 in 26 W/m2
11:44 36.1 °F 35.1 °F 29.72 in SE 6.0 mph 10.0 mph 96 % 0.00 in 28 W/m2
11:45 36.1 °F 35.1 °F 29.72 in SE 6.0 mph 10.0 mph 96 % 0.00 in 30 W/m2
11:46 36.1 °F 35.1 °F 29.72 in SE 7.0 mph 11.0 mph 96 % 0.00 in 28 W/m2
11:47 36.1 °F 35.1 °F 29.72 in SE 7.0 mph 11.0 mph 96 % 0.00 in 28 W/m2
11:48 36.1 °F 35.1 °F 29.72 in SE 7.0 mph 11.0 mph 96 % 0.00 in 28 W/m2
11:49 36.1 °F 35.1 °F 29.72 in SE 6.0 mph 10.0 mph 96 % 0.00 in 26 W/m2
11:50 36.1 °F 35.1 °F 29.72 in SE 6.0 mph 10.0 mph 96 % 0.00 in 23 W/m2
11:51 36.1 °F 35.1 °F 29.72 in SSE 6.0 mph 10.0 mph 96 % 0.00 in 23 W/m2
11:52 36.1 °F 35.1 °F 29.72 in SSE 6.0 mph 9.0 mph 96 % 0.00 in 23 W/m2
11:53 36.1 °F 35.1 °F 29.72 in SSE 6.0 mph 8.0 mph 96 % 0.00 in 23 W/m2
11:54 36.1 °F 35.1 °F 29.72 in SSE 5.0 mph 8.0 mph 96 % 0.00 in 21 W/m2
11:56 36.1 °F 35.1 °F 29.72 in SE 7.0 mph 10.0 mph 96 % 0.00 in 21 W/m2
11:57 36.1 °F 35.1 °F 29.72 in SE 7.0 mph 10.0 mph 96 % 0.00 in 19 W/m2
11:58 36.1 °F 35.1 °F 29.72 in SE 6.0 mph 8.0 mph 96 % 0.00 in 18 W/m2
11:59 36.1 °F 35.1 °F 29.71 in SE 6.0 mph 9.0 mph 96 % 0.00 in 19 W/m2
12:02 36.1 °F 35.1 °F 29.71 in SE 6.0 mph 9.0 mph 96 % 0.00 in 23 W/m2
12:03 36.1 °F 35.1 °F 29.71 in SE 8.0 mph 10.0 mph 96 % 0.00 in 23 W/m2
12:04 36.1 °F 35.1 °F 29.71 in SE 8.0 mph 10.0 mph 96 % 0.00 in 23 W/m2
12:07 36.1 °F 35.1 °F 29.71 in SE 8.0 mph 11.0 mph 96 % 0.00 in 19 W/m2
12:10 36.1 °F 35.1 °F 29.71 in SE 6.0 mph 8.0 mph 96 % 0.00 in 19 W/m2
12:12 36.3 °F 35.3 °F 29.71 in SE 6.0 mph 8.0 mph 96 % 0.00 in 18 W/m2
12:13 36.3 °F 35.3 °F 29.71 in SE 5.0 mph 7.0 mph 96 % 0.00 in 21 W/m2
12:14 36.3 °F 35.3 °F 29.71 in SE 6.0 mph 10.0 mph 96 % 0.00 in 21 W/m2
12:16 36.3 °F 35.3 °F 29.71 in SE 8.0 mph 11.0 mph 96 % 0.00 in 23 W/m2
12:17 36.3 °F 35.3 °F 29.71 in SE 8.0 mph 11.0 mph 96 % 0.00 in 23 W/m2
12:19 36.3 °F 35.3 °F 29.71 in SE 5.0 mph 8.0 mph 96 % 0.00 in 23 W/m2
12:21 36.3 °F 35.3 °F 29.71 in SE 6.0 mph 9.0 mph 96 % 0.00 in 23 W/m2
12:22 36.3 °F 35.3 °F 29.71 in SE 6.0 mph 9.0 mph 96 % 0.00 in 21 W/m2
12:24 36.3 °F 35.3 °F 29.71 in SE 5.0 mph 8.0 mph 96 % 0.00 in 19 W/m2
12:25 36.3 °F 35.3 °F 29.71 in SE 5.0 mph 8.0 mph 96 % 0.00 in 21 W/m2
12:29 36.3 °F 35.3 °F 29.71 in SE 7.0 mph 11.0 mph 96 % 0.00 in 21 W/m2
12:30 36.3 °F 35.3 °F 29.71 in SE 7.0 mph 11.0 mph 96 % 0.00 in 21 W/m2
12:31 36.3 °F 35.3 °F 29.71 in SE 7.0 mph 11.0 mph 96 % 0.00 in 19 W/m2
12:32 36.3 °F 35.3 °F 29.71 in SE 7.0 mph 12.0 mph 96 % 0.00 in 18 W/m2
12:34 36.3 °F 35.3 °F 29.71 in SSE 7.0 mph 12.0 mph 96 % 0.00 in 18 W/m2
12:38 36.3 °F 35.3 °F 29.70 in SE 5.0 mph 8.0 mph 96 % 0.00 in 18 W/m2
12:39 36.3 °F 35.3 °F 29.70 in SE 5.0 mph 8.0 mph 96 % 0.00 in 18 W/m2
12:40 36.3 °F 35.3 °F 29.70 in SE 7.0 mph 11.0 mph 96 % 0.00 in 18 W/m2
12:43 36.3 °F 35.3 °F 29.70 in SE 6.0 mph 8.0 mph 96 % 0.00 in 21 W/m2
12:44 36.3 °F 35.3 °F 29.69 in SE 5.0 mph 9.0 mph 96 % 0.00 in 19 W/m2
12:45 36.3 °F 35.3 °F 29.70 in SE 5.0 mph 9.0 mph 96 % 0.00 in 19 W/m2
12:46 36.3 °F 35.3 °F 29.70 in SE 6.0 mph 11.0 mph 96 % 0.00 in 25 W/m2
12:47 36.3 °F 35.3 °F 29.70 in SE 8.0 mph 12.0 mph 96 % 0.00 in 26 W/m2
12:48 36.3 °F 35.3 °F 29.69 in SE 8.0 mph 12.0 mph 96 % 0.00 in 23 W/m2
12:50 36.3 °F 35.3 °F 29.69 in SE 7.0 mph 10.0 mph 96 % 0.00 in 16 W/m2
12:51 36.3 °F 35.3 °F 29.69 in SE 7.0 mph 10.0 mph 96 % 0.00 in 16 W/m2
12:52 36.3 °F 35.3 °F 29.69 in SE 7.0 mph 10.0 mph 96 % 0.00 in 16 W/m2
12:54 36.5 °F 35.5 °F 29.69 in SE 6.0 mph 10.0 mph 96 % 0.00 in 19 W/m2
12:55 36.5 °F 35.5 °F 29.69 in SE 5.0 mph 8.0 mph 96 % 0.00 in 21 W/m2
12:57 36.5 °F 35.5 °F 29.69 in SE 5.0 mph 9.0 mph 96 % 0.00 in 21 W/m2
12:58 36.5 °F 35.5 °F 29.69 in SE 6.0 mph 9.0 mph 96 % 0.00 in 18 W/m2
12:59 36.5 °F 35.5 °F 29.69 in SE 5.0 mph 9.0 mph 96 % 0.00 in 19 W/m2
13:00 36.5 °F 35.5 °F 29.69 in SE 4.0 mph 7.0 mph 96 % 0.00 in 18 W/m2
13:01 36.5 °F 35.5 °F 29.69 in SE 5.0 mph 9.0 mph 96 % 0.00 in 19 W/m2
13:03 36.5 °F 35.5 °F 29.69 in SE 7.0 mph 12.0 mph 96 % 0.00 in 18 W/m2
13:04 36.5 °F 35.5 °F 29.69 in SE 7.0 mph 12.0 mph 96 % 0.00 in 19 W/m2
13:07 36.5 °F 35.5 °F 29.69 in SE 8.0 mph 13.0 mph 96 % 0.00 in 19 W/m2
13:08 36.5 °F 35.5 °F 29.69 in SE 10.0 mph 14.0 mph 96 % 0.00 in 21 W/m2
13:09 36.5 °F 35.5 °F 29.69 in SE 10.0 mph 14.0 mph 96 % 0.00 in 23 W/m2
13:10 36.5 °F 35.5 °F 29.69 in SE 10.0 mph 14.0 mph 96 % 0.00 in 23 W/m2
13:11 36.5 °F 35.5 °F 29.68 in SE 8.0 mph 13.0 mph 96 % 0.00 in 23 W/m2
13:13 36.5 °F 35.5 °F 29.68 in SE 7.0 mph 11.0 mph 96 % 0.00 in 19 W/m2
13:14 36.5 °F 35.5 °F 29.68 in SE 7.0 mph 12.0 mph 96 % 0.00 in 18 W/m2
13:15 36.5 °F 35.5 °F 29.68 in SSE 7.0 mph 12.0 mph 96 % 0.00 in 16 W/m2
13:16 36.7 °F 35.6 °F 29.68 in SSE 6.0 mph 12.0 mph 96 % 0.00 in 16 W/m2
13:17 36.7 °F 35.6 °F 29.68 in SE 6.0 mph 9.0 mph 96 % 0.00 in 14 W/m2
13:18 36.7 °F 35.6 °F 29.68 in SE 6.0 mph 8.0 mph 96 % 0.00 in 14 W/m2
13:19 36.7 °F 35.6 °F 29.68 in SE 5.0 mph 7.0 mph 96 % 0.00 in 14 W/m2
13:20 36.7 °F 35.6 °F 29.68 in SE 5.0 mph 9.0 mph 96 % 0.00 in 14 W/m2
13:21 36.7 °F 35.6 °F 29.68 in SE 7.0 mph 9.0 mph 96 % 0.00 in 14 W/m2
13:23 36.7 °F 35.6 °F 29.68 in SSE 7.0 mph 9.0 mph 96 % 0.00 in 12 W/m2
13:25 36.7 °F 35.6 °F 29.68 in SE 7.0 mph 12.0 mph 96 % 0.00 in 12 W/m2
13:27 36.7 °F 35.6 °F 29.68 in SE 8.0 mph 11.0 mph 96 % 0.00 in 14 W/m2
13:28 36.7 °F 35.6 °F 29.67 in SE 7.0 mph 11.0 mph 96 % 0.00 in 14 W/m2
13:29 36.7 °F 35.6 °F 29.67 in SE 7.0 mph 11.0 mph 96 % 0.00 in 14 W/m2
13:32 36.7 °F 35.6 °F 29.67 in SSE 8.0 mph 11.0 mph 96 % 0.00 in 16 W/m2
13:33 36.7 °F 35.6 °F 29.67 in SSE 9.0 mph 14.0 mph 96 % 0.00 in 16 W/m2
13:34 36.7 °F 35.6 °F 29.67 in SSE 9.0 mph 14.0 mph 96 % 0.00 in 18 W/m2
13:40 36.7 °F 35.6 °F 29.67 in SSE 5.0 mph 7.0 mph 96 % 0.00 in 16 W/m2
13:41 36.7 °F 35.6 °F 29.67 in SSE 4.0 mph 6.0 mph 96 % 0.00 in 16 W/m2
13:42 36.7 °F 35.6 °F 29.67 in SSE 3.0 mph 6.0 mph 96 % 0.00 in 16 W/m2
13:44 36.7 °F 35.6 °F 29.67 in SSE 2.0 mph 5.0 mph 96 % 0.00 in 14 W/m2
13:45 36.7 °F 35.6 °F 29.67 in SSE 3.0 mph 8.0 mph 96 % 0.00 in 12 W/m2
13:46 36.7 °F 35.6 °F 29.67 in SSE 6.0 mph 10.0 mph 96 % 0.00 in 12 W/m2
13:48 36.7 °F 35.6 °F 29.67 in SSE 6.0 mph 10.0 mph 96 % 0.00 in 12 W/m2
13:50 36.7 °F 35.6 °F 29.67 in South 4.0 mph 8.0 mph 96 % 0.00 in 12 W/m2
13:51 36.7 °F 35.6 °F 29.67 in South 3.0 mph 8.0 mph 96 % 0.00 in 12 W/m2
13:52 36.7 °F 35.6 °F 29.67 in South 2.0 mph 5.0 mph 96 % 0.00 in 12 W/m2
13:53 36.7 °F 35.6 °F 29.67 in South 2.0 mph 6.0 mph 96 % 0.00 in 12 W/m2
13:54 36.7 °F 35.6 °F 29.67 in South 3.0 mph 6.0 mph 96 % 0.00 in 12 W/m2
13:55 36.7 °F 35.6 °F 29.67 in South 3.0 mph 6.0 mph 96 % 0.00 in 12 W/m2
13:57 36.7 °F 35.6 °F 29.67 in South 2.0 mph 6.0 mph 96 % 0.00 in 12 W/m2
13:59 36.7 °F 35.6 °F 29.67 in SSE 5.0 mph 7.0 mph 96 % 0.00 in 12 W/m2
14:00 36.7 °F 35.6 °F 29.67 in SSE 5.0 mph 7.0 mph 96 % 0.00 in 14 W/m2
14:03 36.7 °F 35.6 °F 29.67 in South 5.0 mph 9.0 mph 96 % 0.00 in 12 W/m2
14:04 36.7 °F 35.6 °F 29.67 in SSE 5.0 mph 10.0 mph 96 % 0.00 in 12 W/m2
14:05 36.7 °F 35.6 °F 29.67 in SSE 6.0 mph 10.0 mph 96 % 0.00 in 11 W/m2
14:06 36.9 °F 35.8 °F 29.67 in SSE 6.0 mph 9.0 mph 96 % 0.00 in 11 W/m2
14:07 36.7 °F 35.6 °F 29.67 in SSE 6.0 mph 9.0 mph 96 % 0.00 in 11 W/m2
14:08 36.9 °F 35.8 °F 29.66 in South 6.0 mph 9.0 mph 96 % 0.00 in 11 W/m2
14:10 36.9 °F 35.8 °F 29.66 in SSE 5.0 mph 9.0 mph 96 % 0.00 in 12 W/m2
14:11 36.7 °F 35.6 °F 29.66 in SSE 4.0 mph 8.0 mph 96 % 0.00 in 12 W/m2
14:12 36.7 °F 35.6 °F 29.66 in SSE 2.0 mph 6.0 mph 96 % 0.00 in 12 W/m2
14:13 36.9 °F 35.8 °F 29.66 in SSE 2.0 mph 7.0 mph 96 % 0.00 in 12 W/m2
14:15 36.7 °F 35.6 °F 29.66 in SSE 3.0 mph 7.0 mph 96 % 0.00 in 12 W/m2
14:17 36.9 °F 35.8 °F 29.66 in South 2.0 mph 5.0 mph 96 % 0.00 in 16 W/m2
14:18 36.9 °F 35.8 °F 29.66 in SSE 3.0 mph 8.0 mph 96 % 0.00 in 14 W/m2
14:20 36.9 °F 35.8 °F 29.66 in SE 5.0 mph 10.0 mph 96 % 0.00 in 12 W/m2
14:21 36.9 °F 35.8 °F 29.66 in SE 7.0 mph 10.0 mph 96 % 0.00 in 12 W/m2
14:22 36.9 °F 35.8 °F 29.66 in SE 6.0 mph 10.0 mph 96 % 0.00 in 14 W/m2
14:23 36.9 °F 35.8 °F 29.66 in SE 5.0 mph 9.0 mph 96 % 0.00 in 18 W/m2
14:24 36.9 °F 35.8 °F 29.66 in SSE 4.0 mph 9.0 mph 96 % 0.00 in 16 W/m2
14:25 36.9 °F 35.8 °F 29.66 in SSE 4.0 mph 6.0 mph 96 % 0.00 in 14 W/m2
14:26 36.9 °F 35.8 °F 29.66 in SSE 4.0 mph 6.0 mph 96 % 0.00 in 14 W/m2
14:28 36.9 °F 35.8 °F 29.66 in SSE 4.0 mph 7.0 mph 96 % 0.00 in 18 W/m2
14:31 36.9 °F 35.8 °F 29.65 in SE 3.0 mph 6.0 mph 96 % 0.00 in 18 W/m2
14:34 36.9 °F 35.8 °F 29.65 in SE 5.0 mph 8.0 mph 96 % 0.00 in 16 W/m2
14:36 36.9 °F 35.8 °F 29.65 in SE 6.0 mph 8.0 mph 96 % 0.00 in 16 W/m2
14:37 36.9 °F 35.8 °F 29.65 in SE 6.0 mph 8.0 mph 96 % 0.00 in 16 W/m2
14:38 36.9 °F 35.8 °F 29.65 in SE 6.0 mph 9.0 mph 96 % 0.00 in 14 W/m2
14:41 36.9 °F 35.8 °F 29.65 in SE 6.0 mph 8.0 mph 96 % 0.00 in 18 W/m2
14:42 36.9 °F 35.8 °F 29.65 in SE 6.0 mph 8.0 mph 96 % 0.00 in 18 W/m2
14:43 37.0 °F 36.0 °F 29.65 in SE 5.0 mph 8.0 mph 96 % 0.00 in 14 W/m2
14:44 37.0 °F 36.0 °F 29.65 in SSE 4.0 mph 6.0 mph 96 % 0.00 in 14 W/m2
14:45 36.9 °F 35.8 °F 29.65 in SSE 4.0 mph 6.0 mph 96 % 0.00 in 14 W/m2
14:46 36.9 °F 35.8 °F 29.65 in SSE 4.0 mph 6.0 mph 96 % 0.00 in 12 W/m2
14:47 37.0 °F 36.0 °F 29.65 in SSE 4.0 mph 6.0 mph 96 % 0.00 in 12 W/m2
14:48 37.0 °F 36.0 °F 29.65 in SSE 4.0 mph 6.0 mph 96 % 0.00 in 11 W/m2
14:49 37.0 °F 36.0 °F 29.66 in SSE 5.0 mph 7.0 mph 96 % 0.00 in 9 W/m2
14:50 37.0 °F 36.0 °F 29.65 in SE 5.0 mph 7.0 mph 96 % 0.00 in 9 W/m2
14:51 37.0 °F 36.0 °F 29.66 in SE 5.0 mph 7.0 mph 96 % 0.00 in 9 W/m2
14:52 37.0 °F 36.0 °F 29.66 in SE 6.0 mph 8.0 mph 96 % 0.00 in 9 W/m2
14:53 37.0 °F 36.0 °F 29.66 in SE 5.0 mph 8.0 mph 96 % 0.00 in 9 W/m2
14:55 37.0 °F 36.0 °F 29.65 in ESE 4.0 mph 6.0 mph 96 % 0.00 in 9 W/m2
14:56 37.0 °F 36.0 °F 29.65 in ESE 4.0 mph 7.0 mph 96 % 0.00 in 11 W/m2
14:58 37.0 °F 36.0 °F 29.65 in SE 5.0 mph 7.0 mph 96 % 0.00 in 9 W/m2
15:01 37.0 °F 36.0 °F 29.65 in SE 5.0 mph 9.0 mph 96 % 0.00 in 9 W/m2
15:03 37.0 °F 36.0 °F 29.65 in SE 5.0 mph 7.0 mph 96 % 0.00 in 9 W/m2
15:04 37.0 °F 36.0 °F 29.65 in SE 5.0 mph 7.0 mph 96 % 0.00 in 9 W/m2
15:06 37.0 °F 36.0 °F 29.65 in SE 6.0 mph 8.0 mph 96 % 0.00 in 9 W/m2
15:09 37.0 °F 36.0 °F 29.65 in SSE 4.0 mph 7.0 mph 96 % 0.00 in 7 W/m2
15:12 37.0 °F 36.0 °F 29.65 in SE 6.0 mph 8.0 mph 96 % 0.00 in 5 W/m2
15:13 37.0 °F 36.0 °F 29.65 in SE 6.0 mph 8.0 mph 96 % 0.00 in 5 W/m2
15:14 37.0 °F 36.0 °F 29.65 in SE 5.0 mph 8.0 mph 96 % 0.00 in 5 W/m2
15:16 37.0 °F 36.0 °F 29.65 in SE 4.0 mph 7.0 mph 96 % 0.00 in 5 W/m2
15:20 37.0 °F 36.0 °F 29.64 in SE 8.0 mph 10.0 mph 96 % 0.00 in 5 W/m2
15:21 37.0 °F 36.0 °F 29.64 in SE 6.0 mph 10.0 mph 96 % 0.00 in 5 W/m2
15:22 37.0 °F 36.0 °F 29.65 in SE 6.0 mph 10.0 mph 96 % 0.00 in 5 W/m2
15:23 37.0 °F 36.0 °F 29.64 in SSE 5.0 mph 7.0 mph 96 % 0.00 in 5 W/m2
15:24 37.0 °F 36.0 °F 29.65 in SSE 6.0 mph 7.0 mph 96 % 0.00 in 5 W/m2
15:28 37.0 °F 36.0 °F 29.64 in SE 4.0 mph 8.0 mph 96 % 0.00 in 0 W/m2
15:29 37.0 °F 36.0 °F 29.64 in SE 4.0 mph 8.0 mph 96 % 0.00 in 0 W/m2
15:30 37.0 °F 36.0 °F 29.64 in SE 5.0 mph 9.0 mph 96 % 0.00 in 0 W/m2
15:32 37.0 °F 36.0 °F 29.65 in SE 6.0 mph 10.0 mph 96 % 0.00 in 0 W/m2
15:33 37.0 °F 36.0 °F 29.65 in SE 6.0 mph 10.0 mph 96 % 0.00 in 0 W/m2
15:34 37.0 °F 36.0 °F 29.65 in SE 6.0 mph 10.0 mph 96 % 0.00 in 0 W/m2
15:35 37.0 °F 36.0 °F 29.65 in SE 6.0 mph 8.0 mph 96 % 0.00 in 0 W/m2
15:36 37.0 °F 36.0 °F 29.65 in SE 6.0 mph 8.0 mph 96 % 0.00 in 0 W/m2
15:37 37.0 °F 36.0 °F 29.65 in SE 6.0 mph 8.0 mph 96 % 0.00 in 0 W/m2
15:40 37.2 °F 36.2 °F 29.65 in SE 7.0 mph 9.0 mph 96 % 0.00 in 0 W/m2
15:41 37.0 °F 36.0 °F 29.65 in SE 7.0 mph 9.0 mph 96 % 0.00 in 0 W/m2
15:42 37.0 °F 36.0 °F 29.65 in SE 7.0 mph 9.0 mph 96 % 0.00 in 0 W/m2
15:43 37.0 °F 36.0 °F 29.65 in SE 6.0 mph 9.0 mph 96 % 0.00 in 0 W/m2
15:46 37.2 °F 36.2 °F 29.64 in SE 5.0 mph 8.0 mph 96 % 0.00 in 0 W/m2
15:49 37.2 °F 36.2 °F 29.64 in SE 4.0 mph 6.0 mph 96 % 0.00 in 0 W/m2
15:52 37.2 °F 36.2 °F 29.64 in SE 2.0 mph 6.0 mph 96 % 0.00 in 0 W/m2
15:53 37.2 °F 36.2 °F 29.64 in ESE 2.0 mph 6.0 mph 96 % 0.00 in 0 W/m2
15:54 37.2 °F 36.2 °F 29.64 in SE 1.0 mph 5.0 mph 96 % 0.00 in 0 W/m2
15:55 37.2 °F 36.2 °F 29.64 in SE 1.0 mph 4.0 mph 96 % 0.00 in 0 W/m2
15:56 37.2 °F 36.2 °F 29.64 in SE 2.0 mph 5.0 mph 96 % 0.00 in 0 W/m2
15:57 37.2 °F 36.2 °F 29.64 in SE 2.0 mph 5.0 mph 96 % 0.00 in 0 W/m2
15:58 37.2 °F 36.2 °F 29.64 in SE 2.0 mph 5.0 mph 96 % 0.00 in 0 W/m2
15:59 37.2 °F 36.2 °F 29.64 in SE 1.0 mph 4.0 mph 96 % 0.00 in 0 W/m2
16:00 37.2 °F 36.2 °F 29.64 in SE 1.0 mph 4.0 mph 96 % 0.00 in 0 W/m2
16:01 37.2 °F 36.2 °F 29.64 in SE 2.0 mph 6.0 mph 96 % 0.00 in 0 W/m2
16:02 37.2 °F 36.2 °F 29.64 in ESE 4.0 mph 6.0 mph 96 % 0.00 in 0 W/m2
16:03 37.2 °F 36.2 °F 29.64 in ESE 4.0 mph 6.0 mph 96 % 0.00 in 0 W/m2
16:04 37.2 °F 36.2 °F 29.64 in ESE 4.0 mph 6.0 mph 96 % 0.00 in 0 W/m2
16:05 37.2 °F 36.2 °F 29.63 in SE 4.0 mph 6.0 mph 96 % 0.00 in 0 W/m2
16:08 37.2 °F 36.2 °F 29.63 in SE 2.0 mph 5.0 mph 96 % 0.00 in 0 W/m2
16:10 37.2 °F 36.2 °F 29.64 in SE 4.0 mph 6.0 mph 96 % 0.00 in 0 W/m2
16:11 37.2 °F 36.2 °F 29.64 in SE 3.0 mph 6.0 mph 96 % 0.00 in 0 W/m2
16:13 37.2 °F 36.2 °F 29.64 in ESE 2.0 mph 6.0 mph 96 % 0.00 in 0 W/m2
16:14 37.2 °F 36.2 °F 29.64 in ESE 3.0 mph 7.0 mph 96 % 0.00 in 0 W/m2
16:16 37.2 °F 36.2 °F 29.64 in ESE 3.0 mph 7.0 mph 96 % 0.00 in 0 W/m2
16:17 37.2 °F 36.2 °F 29.64 in ESE 3.0 mph 7.0 mph 96 % 0.00 in 0 W/m2
16:18 37.2 °F 36.2 °F 29.64 in ESE 2.0 mph 5.0 mph 96 % 0.00 in 0 W/m2
16:19 37.2 °F 36.2 °F 29.64 in ESE 3.0 mph 5.0 mph 96 % 0.00 in 0 W/m2
16:20 37.2 °F 36.2 °F 29.63 in ESE 2.0 mph 5.0 mph 96 % 0.00 in 0 W/m2
16:21 37.2 °F 36.2 °F 29.64 in ESE 2.0 mph 5.0 mph 96 % 0.00 in 0 W/m2
16:22 37.2 °F 36.2 °F 29.64 in ESE 2.0 mph 5.0 mph 96 % 0.00 in 0 W/m2
16:23 37.2 °F 36.2 °F 29.64 in ESE 2.0 mph 5.0 mph 96 % 0.00 in 0 W/m2
16:25 37.2 °F 36.2 °F 29.64 in ESE 3.0 mph 5.0 mph 96 % 0.00 in 0 W/m2
16:26 37.2 °F 36.2 °F 29.64 in ESE 2.0 mph 5.0 mph 96 % 0.00 in 0 W/m2
16:29 37.2 °F 36.2 °F 29.64 in ESE 3.0 mph 5.0 mph 96 % 0.00 in 0 W/m2
16:30 37.2 °F 36.2 °F 29.64 in ESE 4.0 mph 6.0 mph 96 % 0.00 in 0 W/m2
16:31 37.2 °F 36.2 °F 29.64 in ESE 4.0 mph 6.0 mph 96 % 0.00 in 0 W/m2
16:32 37.2 °F 36.2 °F 29.63 in ESE 4.0 mph 6.0 mph 96 % 0.00 in 0 W/m2
16:33 37.2 °F 36.2 °F 29.63 in ESE 2.0 mph 6.0 mph 96 % 0.00 in 0 W/m2
16:34 37.2 °F 36.2 °F 29.64 in ESE 3.0 mph 5.0 mph 96 % 0.00 in 0 W/m2
16:35 37.2 °F 36.2 °F 29.63 in ESE 4.0 mph 6.0 mph 96 % 0.00 in 0 W/m2
16:38 37.2 °F 36.2 °F 29.64 in ESE 4.0 mph 6.0 mph 96 % 0.00 in 0 W/m2
16:39 37.2 °F 36.2 °F 29.63 in ESE 3.0 mph 6.0 mph 96 % 0.00 in 0 W/m2
16:40 37.2 °F 36.2 °F 29.63 in ESE 2.0 mph 6.0 mph 96 % 0.00 in 0 W/m2
16:41 37.2 °F 36.2 °F 29.63 in ESE 2.0 mph 5.0 mph 96 % 0.00 in 0 W/m2
16:42 37.4 °F 36.4 °F 29.63 in East 2.0 mph 4.0 mph 96 % 0.00 in 0 W/m2
16:43 37.2 °F 36.2 °F 29.63 in ENE 1.0 mph 4.0 mph 96 % 0.00 in 0 W/m2
16:48 37.4 °F 36.4 °F 29.63 in East 2.0 mph 5.0 mph 96 % 0.00 in 0 W/m2
16:49 37.4 °F 36.4 °F 29.63 in East 2.0 mph 5.0 mph 96 % 0.00 in 0 W/m2
16:52 37.4 °F 36.4 °F 29.63 in ESE 1.0 mph 5.0 mph 96 % 0.00 in 0 W/m2
16:54 37.4 °F 36.4 °F 29.63 in ESE 4.0 mph 8.0 mph 96 % 0.00 in 0 W/m2
16:55 37.4 °F 36.4 °F 29.63 in ESE 5.0 mph 8.0 mph 96 % 0.00 in 0 W/m2
16:57 37.4 °F 36.4 °F 29.63 in ESE 5.0 mph 8.0 mph 96 % 0.00 in 0 W/m2
16:59 37.4 °F 36.4 °F 29.63 in ESE 4.0 mph 6.0 mph 96 % 0.00 in 0 W/m2
17:00 37.4 °F 36.4 °F 29.63 in ESE 4.0 mph 6.0 mph 96 % 0.00 in 0 W/m2
17:01 37.4 °F 36.4 °F 29.63 in ESE 4.0 mph 6.0 mph 96 % 0.00 in 0 W/m2
17:03 37.4 °F 36.4 °F 29.63 in ESE 4.0 mph 6.0 mph 96 % 0.00 in 0 W/m2
17:04 37.4 °F 36.4 °F 29.63 in ESE 4.0 mph 6.0 mph 96 % 0.00 in 0 W/m2
17:05 37.4 °F 36.4 °F 29.63 in ESE 4.0 mph 6.0 mph 96 % 0.00 in 0 W/m2
17:08 37.4 °F 36.4 °F 29.63 in SSE 1.0 mph 3.0 mph 96 % 0.00 in 0 W/m2
17:09 37.4 °F 36.4 °F 29.63 in Calm   2.0 mph 96 % 0.00 in 0 W/m2
17:10 37.4 °F 36.4 °F 29.63 in SE 1.0 mph 3.0 mph 96 % 0.00 in 0 W/m2
17:11 37.4 °F 36.4 °F 29.63 in SE 3.0 mph 6.0 mph 96 % 0.00 in 0 W/m2
17:13 37.4 °F 36.4 °F 29.63 in SE 4.0 mph 6.0 mph 96 % 0.00 in 0 W/m2
17:14 37.4 °F 36.4 °F 29.63 in SE 4.0 mph 6.0 mph 96 % 0.00 in 0 W/m2
17:15 37.4 °F 36.4 °F 29.63 in ESE 4.0 mph 6.0 mph 96 % 0.00 in 0 W/m2
17:16 37.4 °F 36.4 °F 29.63 in SE 4.0 mph 6.0 mph 96 % 0.00 in 0 W/m2
17:17 37.4 °F 36.4 °F 29.63 in SE 4.0 mph 7.0 mph 96 % 0.00 in 0 W/m2
17:18 37.4 °F 36.4 °F 29.63 in SE 4.0 mph 7.0 mph 96 % 0.00 in 0 W/m2
17:20 37.4 °F 36.4 °F 29.63 in SE 4.0 mph 7.0 mph 96 % 0.00 in 0 W/m2
17:21 37.4 °F 36.4 °F 29.63 in SE 5.0 mph 8.0 mph 96 % 0.00 in 0 W/m2
17:24 37.4 °F 36.4 °F 29.63 in SE 5.0 mph 8.0 mph 96 % 0.00 in 0 W/m2
17:25 37.4 °F 36.4 °F 29.63 in SE 5.0 mph 8.0 mph 96 % 0.00 in 0 W/m2
17:26 37.4 °F 36.4 °F 29.63 in SE 4.0 mph 7.0 mph 96 % 0.00 in 0 W/m2
17:28 37.4 °F 36.4 °F 29.63 in SE 5.0 mph 7.0 mph 96 % 0.00 in 0 W/m2
17:30 37.4 °F 36.4 °F 29.63 in SE 5.0 mph 7.0 mph 96 % 0.00 in 0 W/m2
17:45 37.6 °F 36.5 °F 29.62 in SE 5.0 mph 7.0 mph 96 % 0.00 in 0 W/m2
17:52 37.6 °F 36.5 °F 29.62 in ESE 5.0 mph 7.0 mph 96 % 0.00 in 0 W/m2
17:53 37.6 °F 36.5 °F 29.62 in SE 5.0 mph 7.0 mph 96 % 0.00 in 0 W/m2
17:59 37.6 °F 36.5 °F 29.62 in SE 5.0 mph 7.0 mph 96 % 0.00 in 0 W/m2
18:01 37.6 °F 36.5 °F 29.62 in SE 4.0 mph 7.0 mph 96 % 0.00 in 0 W/m2
18:02 37.6 °F 36.5 °F 29.62 in SE 4.0 mph 5.0 mph 96 % 0.00 in 0 W/m2
18:06 37.6 °F 36.5 °F 29.62 in SE 7.0 mph 10.0 mph 96 % 0.00 in 0 W/m2
18:07 37.6 °F 36.5 °F 29.62 in SE 7.0 mph 10.0 mph 96 % 0.00 in 0 W/m2
18:14 37.4 °F 36.4 °F 29.61 in SE 5.0 mph 7.0 mph 96 % 0.00 in 0 W/m2
18:21 37.6 °F 36.5 °F 29.62 in SSE 5.0 mph 8.0 mph 96 % 0.00 in 0 W/m2
18:23 37.6 °F 36.5 °F 29.61 in SE 5.0 mph 7.0 mph 96 % 0.00 in 0 W/m2
18:24 37.6 °F 36.5 °F 29.62 in SSE 5.0 mph 7.0 mph 96 % 0.00 in 0 W/m2
18:25 37.6 °F 36.5 °F 29.62 in SSE 5.0 mph 6.0 mph 96 % 0.00 in 0 W/m2
18:26 37.6 °F 36.5 °F 29.61 in SSE 4.0 mph 6.0 mph 96 % 0.00 in 0 W/m2
18:28 37.6 °F 36.5 °F 29.61 in SSE 3.0 mph 5.0 mph 96 % 0.00 in 0 W/m2
18:29 37.6 °F 36.5 °F 29.62 in SSE 2.0 mph 5.0 mph 96 % 0.00 in 0 W/m2
18:30 37.6 °F 36.5 °F 29.62 in SSE 2.0 mph 5.0 mph 96 % 0.00 in 0 W/m2
18:32 37.6 °F 36.5 °F 29.61 in SSE 4.0 mph 6.0 mph 96 % 0.00 in 0 W/m2
18:35 37.6 °F 36.5 °F 29.62 in SE 4.0 mph 7.0 mph 96 % 0.00 in 0 W/m2
18:40 37.6 °F 36.5 °F 29.62 in SE 5.0 mph 8.0 mph 96 % 0.00 in 0 W/m2
18:42 37.6 °F 36.5 °F 29.62 in SE 5.0 mph 8.0 mph 96 % 0.00 in 0 W/m2
18:43 37.6 °F 36.5 °F 29.62 in SE 6.0 mph 8.0 mph 96 % 0.00 in 0 W/m2
18:45 37.6 °F 36.5 °F 29.62 in SE 5.0 mph 7.0 mph 96 % 0.00 in 0 W/m2
18:47 37.6 °F 36.5 °F 29.62 in SE 5.0 mph 8.0 mph 96 % 0.00 in 0 W/m2
18:50 37.6 °F 36.5 °F 29.62 in SE 5.0 mph 7.0 mph 96 % 0.00 in 0 W/m2
18:55 37.6 °F 36.5 °F 29.62 in SE 4.0 mph 7.0 mph 96 % 0.00 in 0 W/m2
18:59 37.6 °F 36.5 °F 29.61 in SE 2.0 mph 5.0 mph 96 % 0.00 in 0 W/m2
19:04 37.6 °F 36.5 °F 29.61 in ESE 5.0 mph 7.0 mph 96 % 0.00 in 0 W/m2
19:10 37.6 °F 36.5 °F 29.62 in SE 5.0 mph 7.0 mph 96 % 0.00 in 0 W/m2
19:16 37.6 °F 36.5 °F 29.62 in SE 5.0 mph 9.0 mph 96 % 0.00 in 0 W/m2
19:19 37.6 °F 36.5 °F 29.62 in SE 3.0 mph 6.0 mph 96 % 0.00 in 0 W/m2
19:24 37.6 °F 36.5 °F 29.62 in SE 4.0 mph 7.0 mph 96 % 0.00 in 0 W/m2
19:30 37.8 °F 36.7 °F 29.62 in SE 4.0 mph 7.0 mph 96 % 0.00 in 0 W/m2
19:35 37.8 °F 36.7 °F 29.61 in SE 6.0 mph 8.0 mph 96 % 0.00 in 0 W/m2
19:40 37.8 °F 36.7 °F 29.62 in SE 5.0 mph 7.0 mph 96 % 0.00 in 0 W/m2
19:50 37.8 °F 36.7 °F 29.61 in SE 2.0 mph 6.0 mph 96 % 0.00 in 0 W/m2
19:55 37.8 °F 36.7 °F 29.61 in SE 3.0 mph 6.0 mph 96 % 0.00 in 0 W/m2
20:01 37.8 °F 36.7 °F 29.61 in East 3.0 mph 5.0 mph 96 % 0.00 in 0 W/m2
20:07 37.8 °F 36.7 °F 29.61 in SE 4.0 mph 6.0 mph 96 % 0.00 in 0 W/m2
20:12 37.8 °F 36.7 °F 29.61 in SE 3.0 mph 5.0 mph 96 % 0.00 in 0 W/m2
20:18 37.9 °F 36.9 °F 29.61 in SE 4.0 mph 6.0 mph 96 % 0.00 in 0 W/m2
20:23 37.9 °F 36.9 °F 29.61 in ESE 3.0 mph 6.0 mph 96 % 0.00 in 0 W/m2
20:36 37.9 °F 36.9 °F 29.60 in SE 3.0 mph 5.0 mph 96 % 0.00 in 0 W/m2
20:37 37.9 °F 36.9 °F 29.61 in SE 3.0 mph 5.0 mph 96 % 0.00 in 0 W/m2
20:39 37.9 °F 36.9 °F 29.60 in SSE 1.0 mph 4.0 mph 96 % 0.00 in 0 W/m2
20:41 37.9 °F 36.9 °F 29.61 in Calm   4.0 mph 96 % 0.00 in 0 W/m2
20:42 37.9 °F 36.9 °F 29.61 in SE 1.0 mph 5.0 mph 96 % 0.00 in 0 W/m2
20:48 37.9 °F 36.9 °F 29.61 in ESE 1.0 mph 4.0 mph 96 % 0.00 in 0 W/m2
20:54 37.9 °F 36.9 °F 29.61 in Calm   1.0 mph 96 % 0.00 in 0 W/m2
20:55 37.9 °F 36.9 °F 29.61 in Calm   1.0 mph 96 % 0.00 in 0 W/m2
21:01 37.9 °F 36.9 °F 29.61 in ESE 1.0 mph 4.0 mph 96 % 0.00 in 0 W/m2
21:06 38.1 °F 37.1 °F 29.61 in SE 3.0 mph 6.0 mph 96 % 0.00 in 0 W/m2
21:07 38.1 °F 37.1 °F 29.61 in SE 4.0 mph 6.0 mph 96 % 0.00 in 0 W/m2
21:10 38.1 °F 37.1 °F 29.61 in SE 5.0 mph 6.0 mph 96 % 0.00 in 0 W/m2
21:13 38.1 °F 37.1 °F 29.61 in SE 3.0 mph 7.0 mph 96 % 0.00 in 0 W/m2
21:20 38.1 °F 37.1 °F 29.60 in SE 5.0 mph 8.0 mph 96 % 0.00 in 0 W/m2
21:25 38.1 °F 37.1 °F 29.60 in SE 5.0 mph 9.0 mph 96 % 0.00 in 0 W/m2
21:27 38.1 °F 37.1 °F 29.60 in ESE 3.0 mph 7.0 mph 96 % 0.00 in 0 W/m2
21:32 38.1 °F 37.1 °F 29.60 in ESE 4.0 mph 7.0 mph 96 % 0.00 in 0 W/m2
21:34 38.1 °F 37.1 °F 29.60 in ESE 5.0 mph 7.0 mph 96 % 0.00 in 0 W/m2
21:40 38.1 °F 37.1 °F 29.60 in SE 6.0 mph 8.0 mph 96 % 0.00 in 0 W/m2
21:43 38.1 °F 37.1 °F 29.60 in SE 5.0 mph 8.0 mph 96 % 0.00 in 0 W/m2
21:48 38.3 °F 37.5 °F 29.60 in SSE 6.0 mph 9.0 mph 97 % 0.00 in 0 W/m2
21:51 38.3 °F 37.3 °F 29.60 in SE 6.0 mph 8.0 mph 96 % 0.00 in 0 W/m2
21:57 38.3 °F 37.3 °F 29.60 in SE 4.0 mph 7.0 mph 96 % 0.00 in 0 W/m2
22:01 38.3 °F 37.5 °F 29.60 in SE 5.0 mph 7.0 mph 97 % 0.00 in 0 W/m2
22:03 38.3 °F 37.3 °F 29.60 in SE 5.0 mph 7.0 mph 96 % 0.00 in 0 W/m2
22:06 38.3 °F 37.5 °F 29.60 in SE 6.0 mph 9.0 mph 97 % 0.00 in 0 W/m2
22:13 38.3 °F 37.5 °F 29.60 in SE 7.0 mph 10.0 mph 97 % 0.00 in 0 W/m2
22:19 38.5 °F 37.7 °F 29.60 in SE 6.0 mph 9.0 mph 97 % 0.00 in 0 W/m2
22:21 38.5 °F 37.7 °F 29.60 in ESE 5.0 mph 7.0 mph 97 % 0.00 in 0 W/m2
22:27 38.5 °F 37.7 °F 29.60 in SE 5.0 mph 7.0 mph 97 % 0.00 in 0 W/m2
22:29 38.5 °F 37.7 °F 29.60 in SE 4.0 mph 7.0 mph 97 % 0.00 in 0 W/m2
22:35 38.5 °F 37.7 °F 29.59 in SE 6.0 mph 8.0 mph 97 % 0.00 in 0 W/m2
22:40 38.5 °F 37.7 °F 29.59 in SE 3.0 mph 6.0 mph 97 % 0.00 in 0 W/m2
22:45 38.5 °F 37.7 °F 29.59 in SE 5.0 mph 7.0 mph 97 % 0.00 in 0 W/m2
22:47 38.5 °F 37.7 °F 29.59 in SE 4.0 mph 7.0 mph 97 % 0.00 in 0 W/m2
22:51 38.5 °F 37.7 °F 29.59 in SE 1.0 mph 4.0 mph 97 % 0.00 in 0 W/m2
22:54 38.5 °F 37.7 °F 29.59 in Calm     97 % 0.00 in 0 W/m2
22:56 38.5 °F 37.7 °F 29.59 in SE 1.0 mph 3.0 mph 97 % 0.00 in 0 W/m2
23:02 38.7 °F 37.9 °F 29.59 in SE 2.0 mph 6.0 mph 97 % 0.00 in 0 W/m2
23:11 38.7 °F 37.9 °F 29.59 in ESE 4.0 mph 6.0 mph 97 % 0.00 in 0 W/m2
23:14 38.7 °F 37.9 °F 29.59 in ESE 4.0 mph 6.0 mph 97 % 0.00 in 0 W/m2
23:20 38.7 °F 37.9 °F 29.59 in ESE 3.0 mph 6.0 mph 97 % 0.00 in 0 W/m2
23:25 38.7 °F 37.9 °F 29.59 in ESE 2.0 mph 6.0 mph 97 % 0.00 in 0 W/m2
23:28 38.8 °F 38.1 °F 29.59 in East 1.0 mph 4.0 mph 97 % 0.00 in 0 W/m2
23:39 38.8 °F 38.1 °F 29.59 in ESE 3.0 mph 5.0 mph 97 % 0.00 in 0 W/m2
23:49 38.8 °F 38.1 °F 29.58 in ESE 5.0 mph 7.0 mph 97 % 0.00 in 0 W/m2
23:50 39.0 °F 38.2 °F 29.59 in ESE 5.0 mph 8.0 mph 97 % 0.00 in 0 W/m2
23:52 39.0 °F 38.2 °F 29.59 in ESE 5.0 mph 8.0 mph 97 % 0.00 in 0 W/m2
Delerius-Weather
Compliments of Weather Underground - 5 mb

Data updates at regular intervals.